<?xml version="1.0" encoding="UTF-8" standalone="no" ?>
<gpx xmlns="http://www.topografix.com/GPX/1/1" xmlns:xsi="http://www.w3.org/2001/XMLSchema-instance" xsi:schemaLocation="http://www.topografix.com/GPX/1/1 http://www.topografix.com/GPX/1/1/gpx.xsd" version="1.1" creator="VisuGPX - https://www.visugpx.com">
  <metadata>
    <name>Vtt</name>
  </metadata>
  <trk>
    <name><![CDATA[Vtt_1]]></name>
    <trkseg>
      <trkpt lat="48.61901" lon="6.3978">
        <ele>247.4</ele>
        <time>2022-05-20T11:20:49Z</time>
      </trkpt>
      <trkpt lat="48.61902" lon="6.39776">
        <ele>286</ele>
        <time>2022-05-20T11:20:50Z</time>
      </trkpt>
      <trkpt lat="48.61901" lon="6.3978">
        <ele>286</ele>
        <time>2022-05-20T11:20:51Z</time>
      </trkpt>
      <trkpt lat="48.61901" lon="6.39782">
        <ele>247.4</ele>
        <time>2022-05-20T11:20:54Z</time>
      </trkpt>
      <trkpt lat="48.61901" lon="6.39778">
        <ele>247.4</ele>
        <time>2022-05-20T11:20:55Z</time>
      </trkpt>
      <trkpt lat="48.61906" lon="6.39779">
        <ele>247.2</ele>
        <time>2022-05-20T11:20:57Z</time>
      </trkpt>
      <trkpt lat="48.61906" lon="6.39782">
        <ele>247.2</ele>
        <time>2022-05-20T11:20:58Z</time>
      </trkpt>
      <trkpt lat="48.61905" lon="6.39783">
        <ele>247.2</ele>
        <time>2022-05-20T11:20:59Z</time>
      </trkpt>
      <trkpt lat="48.61906" lon="6.39783">
        <ele>247</ele>
        <time>2022-05-20T11:21:00Z</time>
      </trkpt>
      <trkpt lat="48.61906" lon="6.39791">
        <ele>247</ele>
        <time>2022-05-20T11:21:01Z</time>
      </trkpt>
      <trkpt lat="48.61927" lon="6.3984">
        <ele>246.4</ele>
        <time>2022-05-20T11:21:14Z</time>
      </trkpt>
      <trkpt lat="48.61954" lon="6.39893">
        <ele>245.4</ele>
        <time>2022-05-20T11:21:24Z</time>
      </trkpt>
      <trkpt lat="48.61957" lon="6.39899">
        <ele>245.4</ele>
        <time>2022-05-20T11:21:25Z</time>
      </trkpt>
      <trkpt lat="48.62001" lon="6.39965">
        <ele>244</ele>
        <time>2022-05-20T11:21:38Z</time>
      </trkpt>
      <trkpt lat="48.62013" lon="6.39975">
        <ele>243.8</ele>
        <time>2022-05-20T11:21:41Z</time>
      </trkpt>
      <trkpt lat="48.62018" lon="6.39974">
        <ele>243.6</ele>
        <time>2022-05-20T11:21:42Z</time>
      </trkpt>
      <trkpt lat="48.62022" lon="6.39972">
        <ele>243.8</ele>
        <time>2022-05-20T11:21:43Z</time>
      </trkpt>
      <trkpt lat="48.62026" lon="6.39969">
        <ele>244</ele>
        <time>2022-05-20T11:21:44Z</time>
      </trkpt>
      <trkpt lat="48.6203" lon="6.39967">
        <ele>244</ele>
        <time>2022-05-20T11:21:45Z</time>
      </trkpt>
      <trkpt lat="48.62074" lon="6.39941">
        <ele>247.2</ele>
        <time>2022-05-20T11:22:05Z</time>
      </trkpt>
      <trkpt lat="48.62111" lon="6.39929">
        <ele>250</ele>
        <time>2022-05-20T11:22:24Z</time>
      </trkpt>
      <trkpt lat="48.62112" lon="6.39928">
        <ele>250.2</ele>
        <time>2022-05-20T11:22:25Z</time>
      </trkpt>
      <trkpt lat="48.62115" lon="6.39926">
        <ele>250.6</ele>
        <time>2022-05-20T11:22:28Z</time>
      </trkpt>
      <trkpt lat="48.62116" lon="6.39926">
        <ele>251</ele>
        <time>2022-05-20T11:22:29Z</time>
      </trkpt>
      <trkpt lat="48.62136" lon="6.39912">
        <ele>253.6</ele>
        <time>2022-05-20T11:22:49Z</time>
      </trkpt>
      <trkpt lat="48.62155" lon="6.39892">
        <ele>255.6</ele>
        <time>2022-05-20T11:23:03Z</time>
      </trkpt>
      <trkpt lat="48.62156" lon="6.3989">
        <ele>255.8</ele>
        <time>2022-05-20T11:23:04Z</time>
      </trkpt>
      <trkpt lat="48.62158" lon="6.39888">
        <ele>255.8</ele>
        <time>2022-05-20T11:23:05Z</time>
      </trkpt>
      <trkpt lat="48.62193" lon="6.39849">
        <ele>254.6</ele>
        <time>2022-05-20T11:23:17Z</time>
      </trkpt>
      <trkpt lat="48.62254" lon="6.39796">
        <ele>251.8</ele>
        <time>2022-05-20T11:23:27Z</time>
      </trkpt>
      <trkpt lat="48.62319" lon="6.39768">
        <ele>252.8</ele>
        <time>2022-05-20T11:23:44Z</time>
      </trkpt>
      <trkpt lat="48.62348" lon="6.39753">
        <ele>256</ele>
        <time>2022-05-20T11:24:02Z</time>
      </trkpt>
      <trkpt lat="48.62381" lon="6.3973">
        <ele>256.4</ele>
        <time>2022-05-20T11:24:18Z</time>
      </trkpt>
      <trkpt lat="48.62441" lon="6.397">
        <ele>253.2</ele>
        <time>2022-05-20T11:24:28Z</time>
      </trkpt>
      <trkpt lat="48.62494" lon="6.39666">
        <ele>250.2</ele>
        <time>2022-05-20T11:24:35Z</time>
      </trkpt>
      <trkpt lat="48.62553" lon="6.39632">
        <ele>246.8</ele>
        <time>2022-05-20T11:24:43Z</time>
      </trkpt>
      <trkpt lat="48.62582" lon="6.39616">
        <ele>243.2</ele>
        <time>2022-05-20T11:24:47Z</time>
      </trkpt>
      <trkpt lat="48.62607" lon="6.39601">
        <ele>239.8</ele>
        <time>2022-05-20T11:24:51Z</time>
      </trkpt>
      <trkpt lat="48.62632" lon="6.39582">
        <ele>236.8</ele>
        <time>2022-05-20T11:24:58Z</time>
      </trkpt>
      <trkpt lat="48.62643" lon="6.39568">
        <ele>236.4</ele>
        <time>2022-05-20T11:25:02Z</time>
      </trkpt>
      <trkpt lat="48.62689" lon="6.39517">
        <ele>237.8</ele>
        <time>2022-05-20T11:25:18Z</time>
      </trkpt>
      <trkpt lat="48.62707" lon="6.39501">
        <ele>240.8</ele>
        <time>2022-05-20T11:25:30Z</time>
      </trkpt>
      <trkpt lat="48.62727" lon="6.39474">
        <ele>244</ele>
        <time>2022-05-20T11:25:45Z</time>
      </trkpt>
      <trkpt lat="48.62747" lon="6.3946">
        <ele>245.8</ele>
        <time>2022-05-20T11:25:57Z</time>
      </trkpt>
      <trkpt lat="48.62748" lon="6.39461">
        <ele>246</ele>
        <time>2022-05-20T11:25:58Z</time>
      </trkpt>
      <trkpt lat="48.62749" lon="6.39463">
        <ele>246.2</ele>
        <time>2022-05-20T11:25:59Z</time>
      </trkpt>
      <trkpt lat="48.62766" lon="6.3954">
        <ele>245.6</ele>
        <time>2022-05-20T11:26:21Z</time>
      </trkpt>
      <trkpt lat="48.62789" lon="6.39623">
        <ele>243.8</ele>
        <time>2022-05-20T11:26:36Z</time>
      </trkpt>
      <trkpt lat="48.62792" lon="6.3963">
        <ele>243.6</ele>
        <time>2022-05-20T11:26:37Z</time>
      </trkpt>
      <trkpt lat="48.62794" lon="6.39637">
        <ele>243.4</ele>
        <time>2022-05-20T11:26:38Z</time>
      </trkpt>
      <trkpt lat="48.62796" lon="6.39643">
        <ele>243.2</ele>
        <time>2022-05-20T11:26:39Z</time>
      </trkpt>
      <trkpt lat="48.62798" lon="6.3965">
        <ele>243</ele>
        <time>2022-05-20T11:26:40Z</time>
      </trkpt>
      <trkpt lat="48.628" lon="6.39657">
        <ele>242.6</ele>
        <time>2022-05-20T11:26:41Z</time>
      </trkpt>
      <trkpt lat="48.62803" lon="6.39664">
        <ele>242.2</ele>
        <time>2022-05-20T11:26:42Z</time>
      </trkpt>
      <trkpt lat="48.62828" lon="6.39717">
        <ele>239.4</ele>
        <time>2022-05-20T11:26:49Z</time>
      </trkpt>
      <trkpt lat="48.62858" lon="6.39771">
        <ele>238.4</ele>
        <time>2022-05-20T11:26:58Z</time>
      </trkpt>
      <trkpt lat="48.62861" lon="6.39776">
        <ele>238.2</ele>
        <time>2022-05-20T11:26:59Z</time>
      </trkpt>
      <trkpt lat="48.62891" lon="6.39821">
        <ele>236.4</ele>
        <time>2022-05-20T11:27:07Z</time>
      </trkpt>
      <trkpt lat="48.62918" lon="6.39851">
        <ele>236</ele>
        <time>2022-05-20T11:27:14Z</time>
      </trkpt>
      <trkpt lat="48.62965" lon="6.399">
        <ele>235.8</ele>
        <time>2022-05-20T11:27:31Z</time>
      </trkpt>
      <trkpt lat="48.63019" lon="6.39948">
        <ele>234</ele>
        <time>2022-05-20T11:27:45Z</time>
      </trkpt>
      <trkpt lat="48.63077" lon="6.39993">
        <ele>232</ele>
        <time>2022-05-20T11:27:57Z</time>
      </trkpt>
      <trkpt lat="48.63089" lon="6.4">
        <ele>231.8</ele>
        <time>2022-05-20T11:27:59Z</time>
      </trkpt>
      <trkpt lat="48.63154" lon="6.40026">
        <ele>229</ele>
        <time>2022-05-20T11:28:08Z</time>
      </trkpt>
      <trkpt lat="48.63209" lon="6.40043">
        <ele>226.6</ele>
        <time>2022-05-20T11:28:15Z</time>
      </trkpt>
      <trkpt lat="48.6324" lon="6.40041">
        <ele>225</ele>
        <time>2022-05-20T11:28:19Z</time>
      </trkpt>
      <trkpt lat="48.63248" lon="6.40039">
        <ele>224.6</ele>
        <time>2022-05-20T11:28:20Z</time>
      </trkpt>
      <trkpt lat="48.63262" lon="6.40034">
        <ele>224</ele>
        <time>2022-05-20T11:28:22Z</time>
      </trkpt>
      <trkpt lat="48.63323" lon="6.40021">
        <ele>223.8</ele>
        <time>2022-05-20T11:28:34Z</time>
      </trkpt>
      <trkpt lat="48.6338" lon="6.4">
        <ele>224.4</ele>
        <time>2022-05-20T11:28:46Z</time>
      </trkpt>
      <trkpt lat="48.63439" lon="6.39995">
        <ele>225.4</ele>
        <time>2022-05-20T11:29:00Z</time>
      </trkpt>
      <trkpt lat="48.63497" lon="6.40007">
        <ele>225.2</ele>
        <time>2022-05-20T11:29:15Z</time>
      </trkpt>
      <trkpt lat="48.63557" lon="6.40021">
        <ele>223.8</ele>
        <time>2022-05-20T11:29:26Z</time>
      </trkpt>
      <trkpt lat="48.63617" lon="6.40034">
        <ele>222.6</ele>
        <time>2022-05-20T11:29:36Z</time>
      </trkpt>
      <trkpt lat="48.63678" lon="6.40054">
        <ele>221.6</ele>
        <time>2022-05-20T11:29:46Z</time>
      </trkpt>
      <trkpt lat="48.63737" lon="6.40055">
        <ele>220.8</ele>
        <time>2022-05-20T11:29:55Z</time>
      </trkpt>
      <trkpt lat="48.63795" lon="6.40057">
        <ele>220.4</ele>
        <time>2022-05-20T11:30:04Z</time>
      </trkpt>
      <trkpt lat="48.6385" lon="6.40053">
        <ele>219.6</ele>
        <time>2022-05-20T11:30:15Z</time>
      </trkpt>
      <trkpt lat="48.63864" lon="6.4005">
        <ele>219.4</ele>
        <time>2022-05-20T11:30:18Z</time>
      </trkpt>
      <trkpt lat="48.63868" lon="6.4005">
        <ele>219.4</ele>
        <time>2022-05-20T11:30:19Z</time>
      </trkpt>
      <trkpt lat="48.63872" lon="6.40049">
        <ele>219.4</ele>
        <time>2022-05-20T11:30:20Z</time>
      </trkpt>
      <trkpt lat="48.6393" lon="6.40038">
        <ele>219.6</ele>
        <time>2022-05-20T11:30:41Z</time>
      </trkpt>
      <trkpt lat="48.63942" lon="6.40033">
        <ele>219.8</ele>
        <time>2022-05-20T11:30:45Z</time>
      </trkpt>
      <trkpt lat="48.63943" lon="6.40029">
        <ele>219.8</ele>
        <time>2022-05-20T11:30:46Z</time>
      </trkpt>
      <trkpt lat="48.63943" lon="6.40025">
        <ele>220</ele>
        <time>2022-05-20T11:30:47Z</time>
      </trkpt>
      <trkpt lat="48.63942" lon="6.40021">
        <ele>220.6</ele>
        <time>2022-05-20T11:30:48Z</time>
      </trkpt>
      <trkpt lat="48.63941" lon="6.40017">
        <ele>220.8</ele>
        <time>2022-05-20T11:30:49Z</time>
      </trkpt>
      <trkpt lat="48.6394" lon="6.39998">
        <ele>221.6</ele>
        <time>2022-05-20T11:30:54Z</time>
      </trkpt>
      <trkpt lat="48.63942" lon="6.39996">
        <ele>221.6</ele>
        <time>2022-05-20T11:30:55Z</time>
      </trkpt>
      <trkpt lat="48.63984" lon="6.39936">
        <ele>221.4</ele>
        <time>2022-05-20T11:31:14Z</time>
      </trkpt>
      <trkpt lat="48.63987" lon="6.39931">
        <ele>221.4</ele>
        <time>2022-05-20T11:31:15Z</time>
      </trkpt>
      <trkpt lat="48.64021" lon="6.39861">
        <ele>220</ele>
        <time>2022-05-20T11:31:29Z</time>
      </trkpt>
      <trkpt lat="48.64051" lon="6.39779">
        <ele>218</ele>
        <time>2022-05-20T11:31:41Z</time>
      </trkpt>
      <trkpt lat="48.64072" lon="6.39696">
        <ele>216.6</ele>
        <time>2022-05-20T11:31:52Z</time>
      </trkpt>
      <trkpt lat="48.64075" lon="6.39668">
        <ele>216.8</ele>
        <time>2022-05-20T11:31:56Z</time>
      </trkpt>
      <trkpt lat="48.64074" lon="6.39581">
        <ele>216.4</ele>
        <time>2022-05-20T11:32:15Z</time>
      </trkpt>
      <trkpt lat="48.64071" lon="6.39515">
        <ele>219.6</ele>
        <time>2022-05-20T11:32:32Z</time>
      </trkpt>
      <trkpt lat="48.64062" lon="6.39473">
        <ele>222.6</ele>
        <time>2022-05-20T11:32:49Z</time>
      </trkpt>
      <trkpt lat="48.64039" lon="6.39458">
        <ele>222</ele>
        <time>2022-05-20T11:32:57Z</time>
      </trkpt>
      <trkpt lat="48.64031" lon="6.39453">
        <ele>221.4</ele>
        <time>2022-05-20T11:32:59Z</time>
      </trkpt>
      <trkpt lat="48.63995" lon="6.3942">
        <ele>220.8</ele>
        <time>2022-05-20T11:33:08Z</time>
      </trkpt>
      <trkpt lat="48.63946" lon="6.39361">
        <ele>220.6</ele>
        <time>2022-05-20T11:33:21Z</time>
      </trkpt>
      <trkpt lat="48.63902" lon="6.39286">
        <ele>220.6</ele>
        <time>2022-05-20T11:33:35Z</time>
      </trkpt>
      <trkpt lat="48.6387" lon="6.392">
        <ele>220.6</ele>
        <time>2022-05-20T11:33:49Z</time>
      </trkpt>
      <trkpt lat="48.63838" lon="6.39101">
        <ele>220.4</ele>
        <time>2022-05-20T11:34:01Z</time>
      </trkpt>
      <trkpt lat="48.63826" lon="6.39064">
        <ele>220.2</ele>
        <time>2022-05-20T11:34:05Z</time>
      </trkpt>
      <trkpt lat="48.63818" lon="6.38976">
        <ele>220</ele>
        <time>2022-05-20T11:34:16Z</time>
      </trkpt>
      <trkpt lat="48.63815" lon="6.38886">
        <ele>219.8</ele>
        <time>2022-05-20T11:34:27Z</time>
      </trkpt>
      <trkpt lat="48.63816" lon="6.3879">
        <ele>219.8</ele>
        <time>2022-05-20T11:34:39Z</time>
      </trkpt>
      <trkpt lat="48.63819" lon="6.38732">
        <ele>219.8</ele>
        <time>2022-05-20T11:34:46Z</time>
      </trkpt>
      <trkpt lat="48.6382" lon="6.38724">
        <ele>219.8</ele>
        <time>2022-05-20T11:34:47Z</time>
      </trkpt>
      <trkpt lat="48.63821" lon="6.38715">
        <ele>219.8</ele>
        <time>2022-05-20T11:34:48Z</time>
      </trkpt>
      <trkpt lat="48.63822" lon="6.38707">
        <ele>219.8</ele>
        <time>2022-05-20T11:34:49Z</time>
      </trkpt>
      <trkpt lat="48.63823" lon="6.38699">
        <ele>219.8</ele>
        <time>2022-05-20T11:34:50Z</time>
      </trkpt>
      <trkpt lat="48.6383" lon="6.38603">
        <ele>219.8</ele>
        <time>2022-05-20T11:35:01Z</time>
      </trkpt>
      <trkpt lat="48.63821" lon="6.38512">
        <ele>219</ele>
        <time>2022-05-20T11:35:12Z</time>
      </trkpt>
      <trkpt lat="48.63807" lon="6.38423">
        <ele>219</ele>
        <time>2022-05-20T11:35:23Z</time>
      </trkpt>
      <trkpt lat="48.6379" lon="6.38332">
        <ele>219.2</ele>
        <time>2022-05-20T11:35:34Z</time>
      </trkpt>
      <trkpt lat="48.63777" lon="6.38242">
        <ele>219</ele>
        <time>2022-05-20T11:35:45Z</time>
      </trkpt>
      <trkpt lat="48.63765" lon="6.38156">
        <ele>219.2</ele>
        <time>2022-05-20T11:35:56Z</time>
      </trkpt>
      <trkpt lat="48.63755" lon="6.38099">
        <ele>219</ele>
        <time>2022-05-20T11:36:03Z</time>
      </trkpt>
      <trkpt lat="48.63753" lon="6.38091">
        <ele>219</ele>
        <time>2022-05-20T11:36:04Z</time>
      </trkpt>
      <trkpt lat="48.63751" lon="6.38083">
        <ele>219.2</ele>
        <time>2022-05-20T11:36:05Z</time>
      </trkpt>
      <trkpt lat="48.63745" lon="6.3806">
        <ele>219.2</ele>
        <time>2022-05-20T11:36:08Z</time>
      </trkpt>
      <trkpt lat="48.63743" lon="6.38052">
        <ele>219.2</ele>
        <time>2022-05-20T11:36:09Z</time>
      </trkpt>
      <trkpt lat="48.63721" lon="6.37967">
        <ele>218.4</ele>
        <time>2022-05-20T11:36:20Z</time>
      </trkpt>
      <trkpt lat="48.63698" lon="6.37881">
        <ele>218.6</ele>
        <time>2022-05-20T11:36:31Z</time>
      </trkpt>
      <trkpt lat="48.63675" lon="6.37792">
        <ele>219</ele>
        <time>2022-05-20T11:36:43Z</time>
      </trkpt>
      <trkpt lat="48.63654" lon="6.37706">
        <ele>218.2</ele>
        <time>2022-05-20T11:36:55Z</time>
      </trkpt>
      <trkpt lat="48.63641" lon="6.37638">
        <ele>218.6</ele>
        <time>2022-05-20T11:37:08Z</time>
      </trkpt>
      <trkpt lat="48.63643" lon="6.37634">
        <ele>218.6</ele>
        <time>2022-05-20T11:37:09Z</time>
      </trkpt>
      <trkpt lat="48.63645" lon="6.37632">
        <ele>218.8</ele>
        <time>2022-05-20T11:37:10Z</time>
      </trkpt>
      <trkpt lat="48.63676" lon="6.37621">
        <ele>217.8</ele>
        <time>2022-05-20T11:37:20Z</time>
      </trkpt>
      <trkpt lat="48.63679" lon="6.37624">
        <ele>217.6</ele>
        <time>2022-05-20T11:37:21Z</time>
      </trkpt>
      <trkpt lat="48.63681" lon="6.37628">
        <ele>217.4</ele>
        <time>2022-05-20T11:37:22Z</time>
      </trkpt>
      <trkpt lat="48.63684" lon="6.37633">
        <ele>217.4</ele>
        <time>2022-05-20T11:37:23Z</time>
      </trkpt>
      <trkpt lat="48.63686" lon="6.37638">
        <ele>217.4</ele>
        <time>2022-05-20T11:37:24Z</time>
      </trkpt>
      <trkpt lat="48.63718" lon="6.37712">
        <ele>218.4</ele>
        <time>2022-05-20T11:37:40Z</time>
      </trkpt>
      <trkpt lat="48.63724" lon="6.3772">
        <ele>218.6</ele>
        <time>2022-05-20T11:37:42Z</time>
      </trkpt>
      <trkpt lat="48.63727" lon="6.37724">
        <ele>218.4</ele>
        <time>2022-05-20T11:37:43Z</time>
      </trkpt>
      <trkpt lat="48.63778" lon="6.37771">
        <ele>218.2</ele>
        <time>2022-05-20T11:37:57Z</time>
      </trkpt>
      <trkpt lat="48.63797" lon="6.37807">
        <ele>218.4</ele>
        <time>2022-05-20T11:38:04Z</time>
      </trkpt>
      <trkpt lat="48.638" lon="6.37812">
        <ele>218.6</ele>
        <time>2022-05-20T11:38:05Z</time>
      </trkpt>
      <trkpt lat="48.63802" lon="6.37818">
        <ele>218.6</ele>
        <time>2022-05-20T11:38:06Z</time>
      </trkpt>
      <trkpt lat="48.6383" lon="6.37892">
        <ele>219.2</ele>
        <time>2022-05-20T11:38:20Z</time>
      </trkpt>
      <trkpt lat="48.6386" lon="6.3797">
        <ele>221</ele>
        <time>2022-05-20T11:38:37Z</time>
      </trkpt>
      <trkpt lat="48.63907" lon="6.38038">
        <ele>224</ele>
        <time>2022-05-20T11:38:59Z</time>
      </trkpt>
      <trkpt lat="48.63947" lon="6.38116">
        <ele>226.8</ele>
        <time>2022-05-20T11:39:21Z</time>
      </trkpt>
      <trkpt lat="48.63987" lon="6.38183">
        <ele>229</ele>
        <time>2022-05-20T11:39:43Z</time>
      </trkpt>
      <trkpt lat="48.64042" lon="6.38232">
        <ele>231</ele>
        <time>2022-05-20T11:40:08Z</time>
      </trkpt>
      <trkpt lat="48.6407" lon="6.38262">
        <ele>234</ele>
        <time>2022-05-20T11:40:25Z</time>
      </trkpt>
      <trkpt lat="48.64071" lon="6.38264">
        <ele>234</ele>
        <time>2022-05-20T11:40:26Z</time>
      </trkpt>
      <trkpt lat="48.64098" lon="6.38333">
        <ele>237.2</ele>
        <time>2022-05-20T11:40:54Z</time>
      </trkpt>
      <trkpt lat="48.64104" lon="6.38347">
        <ele>238.4</ele>
        <time>2022-05-20T11:41:00Z</time>
      </trkpt>
      <trkpt lat="48.64105" lon="6.3835">
        <ele>238.6</ele>
        <time>2022-05-20T11:41:01Z</time>
      </trkpt>
      <trkpt lat="48.64106" lon="6.38352">
        <ele>238.8</ele>
        <time>2022-05-20T11:41:02Z</time>
      </trkpt>
      <trkpt lat="48.64107" lon="6.38354">
        <ele>239</ele>
        <time>2022-05-20T11:41:03Z</time>
      </trkpt>
      <trkpt lat="48.64108" lon="6.38357">
        <ele>239.2</ele>
        <time>2022-05-20T11:41:04Z</time>
      </trkpt>
      <trkpt lat="48.64109" lon="6.38359">
        <ele>239.6</ele>
        <time>2022-05-20T11:41:05Z</time>
      </trkpt>
      <trkpt lat="48.64111" lon="6.3837">
        <ele>240.6</ele>
        <time>2022-05-20T11:41:09Z</time>
      </trkpt>
      <trkpt lat="48.64112" lon="6.38372">
        <ele>240.6</ele>
        <time>2022-05-20T11:41:10Z</time>
      </trkpt>
      <trkpt lat="48.64113" lon="6.38374">
        <ele>240.8</ele>
        <time>2022-05-20T11:41:11Z</time>
      </trkpt>
      <trkpt lat="48.64113" lon="6.38376">
        <ele>241.2</ele>
        <time>2022-05-20T11:41:12Z</time>
      </trkpt>
      <trkpt lat="48.64114" lon="6.38378">
        <ele>241.4</ele>
        <time>2022-05-20T11:41:13Z</time>
      </trkpt>
      <trkpt lat="48.64115" lon="6.3838">
        <ele>241.4</ele>
        <time>2022-05-20T11:41:14Z</time>
      </trkpt>
      <trkpt lat="48.64116" lon="6.38382">
        <ele>241.6</ele>
        <time>2022-05-20T11:41:15Z</time>
      </trkpt>
      <trkpt lat="48.64116" lon="6.38383">
        <ele>241.8</ele>
        <time>2022-05-20T11:41:16Z</time>
      </trkpt>
      <trkpt lat="48.64117" lon="6.38385">
        <ele>242</ele>
        <time>2022-05-20T11:41:17Z</time>
      </trkpt>
      <trkpt lat="48.64118" lon="6.38387">
        <ele>242.2</ele>
        <time>2022-05-20T11:41:18Z</time>
      </trkpt>
      <trkpt lat="48.64127" lon="6.38401">
        <ele>244</ele>
        <time>2022-05-20T11:41:26Z</time>
      </trkpt>
      <trkpt lat="48.64128" lon="6.38403">
        <ele>244.2</ele>
        <time>2022-05-20T11:41:27Z</time>
      </trkpt>
      <trkpt lat="48.64129" lon="6.38405">
        <ele>244.6</ele>
        <time>2022-05-20T11:41:28Z</time>
      </trkpt>
      <trkpt lat="48.6413" lon="6.38407">
        <ele>244.8</ele>
        <time>2022-05-20T11:41:29Z</time>
      </trkpt>
      <trkpt lat="48.64134" lon="6.38412">
        <ele>245.4</ele>
        <time>2022-05-20T11:41:32Z</time>
      </trkpt>
      <trkpt lat="48.64136" lon="6.38414">
        <ele>245.6</ele>
        <time>2022-05-20T11:41:33Z</time>
      </trkpt>
      <trkpt lat="48.64137" lon="6.38416">
        <ele>246</ele>
        <time>2022-05-20T11:41:34Z</time>
      </trkpt>
      <trkpt lat="48.6414" lon="6.38417">
        <ele>246.2</ele>
        <time>2022-05-20T11:41:35Z</time>
      </trkpt>
      <trkpt lat="48.64141" lon="6.38419">
        <ele>246.6</ele>
        <time>2022-05-20T11:41:36Z</time>
      </trkpt>
      <trkpt lat="48.64143" lon="6.38421">
        <ele>246.8</ele>
        <time>2022-05-20T11:41:37Z</time>
      </trkpt>
      <trkpt lat="48.64144" lon="6.38423">
        <ele>247</ele>
        <time>2022-05-20T11:41:38Z</time>
      </trkpt>
      <trkpt lat="48.64144" lon="6.38424">
        <ele>247.2</ele>
        <time>2022-05-20T11:41:39Z</time>
      </trkpt>
      <trkpt lat="48.64146" lon="6.38424">
        <ele>247.4</ele>
        <time>2022-05-20T11:41:40Z</time>
      </trkpt>
      <trkpt lat="48.64147" lon="6.38425">
        <ele>247.6</ele>
        <time>2022-05-20T11:41:41Z</time>
      </trkpt>
      <trkpt lat="48.64152" lon="6.38427">
        <ele>248</ele>
        <time>2022-05-20T11:41:44Z</time>
      </trkpt>
      <trkpt lat="48.64178" lon="6.38427">
        <ele>249.8</ele>
        <time>2022-05-20T11:41:58Z</time>
      </trkpt>
      <trkpt lat="48.6418" lon="6.38427">
        <ele>250</ele>
        <time>2022-05-20T11:41:59Z</time>
      </trkpt>
      <trkpt lat="48.64182" lon="6.38427">
        <ele>250.2</ele>
        <time>2022-05-20T11:42:00Z</time>
      </trkpt>
      <trkpt lat="48.64184" lon="6.38427">
        <ele>250.4</ele>
        <time>2022-05-20T11:42:01Z</time>
      </trkpt>
      <trkpt lat="48.64187" lon="6.38426">
        <ele>250.4</ele>
        <time>2022-05-20T11:42:02Z</time>
      </trkpt>
      <trkpt lat="48.64188" lon="6.38426">
        <ele>250.6</ele>
        <time>2022-05-20T11:42:03Z</time>
      </trkpt>
      <trkpt lat="48.6419" lon="6.38426">
        <ele>250.8</ele>
        <time>2022-05-20T11:42:04Z</time>
      </trkpt>
      <trkpt lat="48.64192" lon="6.38427">
        <ele>251</ele>
        <time>2022-05-20T11:42:05Z</time>
      </trkpt>
      <trkpt lat="48.64194" lon="6.38427">
        <ele>251.2</ele>
        <time>2022-05-20T11:42:06Z</time>
      </trkpt>
      <trkpt lat="48.64214" lon="6.38445">
        <ele>254.4</ele>
        <time>2022-05-20T11:42:20Z</time>
      </trkpt>
      <trkpt lat="48.64215" lon="6.38447">
        <ele>254.6</ele>
        <time>2022-05-20T11:42:21Z</time>
      </trkpt>
      <trkpt lat="48.64216" lon="6.38449">
        <ele>255</ele>
        <time>2022-05-20T11:42:22Z</time>
      </trkpt>
      <trkpt lat="48.64232" lon="6.3847">
        <ele>258</ele>
        <time>2022-05-20T11:42:36Z</time>
      </trkpt>
      <trkpt lat="48.64257" lon="6.38524">
        <ele>261.2</ele>
        <time>2022-05-20T11:42:59Z</time>
      </trkpt>
      <trkpt lat="48.6428" lon="6.38562">
        <ele>264.2</ele>
        <time>2022-05-20T11:43:17Z</time>
      </trkpt>
      <trkpt lat="48.64294" lon="6.38577">
        <ele>267.4</ele>
        <time>2022-05-20T11:43:30Z</time>
      </trkpt>
      <trkpt lat="48.6431" lon="6.38588">
        <ele>270.6</ele>
        <time>2022-05-20T11:43:43Z</time>
      </trkpt>
      <trkpt lat="48.64313" lon="6.38588">
        <ele>271.2</ele>
        <time>2022-05-20T11:43:46Z</time>
      </trkpt>
      <trkpt lat="48.64315" lon="6.38588">
        <ele>271.6</ele>
        <time>2022-05-20T11:43:47Z</time>
      </trkpt>
      <trkpt lat="48.64316" lon="6.38588">
        <ele>271.8</ele>
        <time>2022-05-20T11:43:48Z</time>
      </trkpt>
      <trkpt lat="48.64335" lon="6.38596">
        <ele>274.8</ele>
        <time>2022-05-20T11:44:02Z</time>
      </trkpt>
      <trkpt lat="48.64358" lon="6.38607">
        <ele>277.8</ele>
        <time>2022-05-20T11:44:15Z</time>
      </trkpt>
      <trkpt lat="48.64379" lon="6.38619">
        <ele>280.6</ele>
        <time>2022-05-20T11:44:29Z</time>
      </trkpt>
      <trkpt lat="48.6438" lon="6.3862">
        <ele>281</ele>
        <time>2022-05-20T11:44:30Z</time>
      </trkpt>
      <trkpt lat="48.64382" lon="6.38621">
        <ele>281.2</ele>
        <time>2022-05-20T11:44:31Z</time>
      </trkpt>
      <trkpt lat="48.64383" lon="6.38622">
        <ele>281.4</ele>
        <time>2022-05-20T11:44:32Z</time>
      </trkpt>
      <trkpt lat="48.64384" lon="6.38624">
        <ele>281.6</ele>
        <time>2022-05-20T11:44:33Z</time>
      </trkpt>
      <trkpt lat="48.64386" lon="6.38624">
        <ele>281.6</ele>
        <time>2022-05-20T11:44:34Z</time>
      </trkpt>
      <trkpt lat="48.64387" lon="6.38625">
        <ele>281.8</ele>
        <time>2022-05-20T11:44:35Z</time>
      </trkpt>
      <trkpt lat="48.64388" lon="6.38626">
        <ele>282</ele>
        <time>2022-05-20T11:44:36Z</time>
      </trkpt>
      <trkpt lat="48.64394" lon="6.38629">
        <ele>282.4</ele>
        <time>2022-05-20T11:44:40Z</time>
      </trkpt>
      <trkpt lat="48.64395" lon="6.38629">
        <ele>282.4</ele>
        <time>2022-05-20T11:44:41Z</time>
      </trkpt>
      <trkpt lat="48.64396" lon="6.38628">
        <ele>282.6</ele>
        <time>2022-05-20T11:44:42Z</time>
      </trkpt>
      <trkpt lat="48.64397" lon="6.38627">
        <ele>282.6</ele>
        <time>2022-05-20T11:44:43Z</time>
      </trkpt>
      <trkpt lat="48.64398" lon="6.38626">
        <ele>282.6</ele>
        <time>2022-05-20T11:44:44Z</time>
      </trkpt>
      <trkpt lat="48.64398" lon="6.38628">
        <ele>282.8</ele>
        <time>2022-05-20T11:44:50Z</time>
      </trkpt>
      <trkpt lat="48.64404" lon="6.38621">
        <ele>289.4</ele>
        <time>2022-05-20T11:48:44Z</time>
      </trkpt>
      <trkpt lat="48.64405" lon="6.38618">
        <ele>289.4</ele>
        <time>2022-05-20T11:48:45Z</time>
      </trkpt>
      <trkpt lat="48.64406" lon="6.38614">
        <ele>289.6</ele>
        <time>2022-05-20T11:48:46Z</time>
      </trkpt>
      <trkpt lat="48.64422" lon="6.38523">
        <ele>292.2</ele>
        <time>2022-05-20T11:49:08Z</time>
      </trkpt>
      <trkpt lat="48.6444" lon="6.38472">
        <ele>295.2</ele>
        <time>2022-05-20T11:49:22Z</time>
      </trkpt>
      <trkpt lat="48.64459" lon="6.38428">
        <ele>298.4</ele>
        <time>2022-05-20T11:49:36Z</time>
      </trkpt>
      <trkpt lat="48.64464" lon="6.38417">
        <ele>300.4</ele>
        <time>2022-05-20T11:49:52Z</time>
      </trkpt>
      <trkpt lat="48.64471" lon="6.38406">
        <ele>310.8</ele>
        <time>2022-05-20T11:52:05Z</time>
      </trkpt>
      <trkpt lat="48.64472" lon="6.38404">
        <ele>310.8</ele>
        <time>2022-05-20T11:52:06Z</time>
      </trkpt>
      <trkpt lat="48.64474" lon="6.38401">
        <ele>311</ele>
        <time>2022-05-20T11:52:07Z</time>
      </trkpt>
      <trkpt lat="48.64492" lon="6.38372">
        <ele>314.2</ele>
        <time>2022-05-20T11:52:20Z</time>
      </trkpt>
      <trkpt lat="48.64501" lon="6.38334">
        <ele>317.4</ele>
        <time>2022-05-20T11:52:32Z</time>
      </trkpt>
      <trkpt lat="48.64511" lon="6.3831">
        <ele>320.6</ele>
        <time>2022-05-20T11:52:43Z</time>
      </trkpt>
      <trkpt lat="48.64543" lon="6.38279">
        <ele>323.6</ele>
        <time>2022-05-20T11:53:01Z</time>
      </trkpt>
      <trkpt lat="48.64595" lon="6.3823">
        <ele>326</ele>
        <time>2022-05-20T11:53:22Z</time>
      </trkpt>
      <trkpt lat="48.64645" lon="6.38187">
        <ele>326.2</ele>
        <time>2022-05-20T11:53:38Z</time>
      </trkpt>
      <trkpt lat="48.64671" lon="6.38154">
        <ele>327</ele>
        <time>2022-05-20T11:53:49Z</time>
      </trkpt>
      <trkpt lat="48.64663" lon="6.38129">
        <ele>330.2</ele>
        <time>2022-05-20T11:54:00Z</time>
      </trkpt>
      <trkpt lat="48.64635" lon="6.38066">
        <ele>333.2</ele>
        <time>2022-05-20T11:54:26Z</time>
      </trkpt>
      <trkpt lat="48.64602" lon="6.37997">
        <ele>333</ele>
        <time>2022-05-20T11:54:50Z</time>
      </trkpt>
      <trkpt lat="48.646" lon="6.37891">
        <ele>331.4</ele>
        <time>2022-05-20T11:55:18Z</time>
      </trkpt>
      <trkpt lat="48.64618" lon="6.37805">
        <ele>328.6</ele>
        <time>2022-05-20T11:55:34Z</time>
      </trkpt>
      <trkpt lat="48.64618" lon="6.37739">
        <ele>325.2</ele>
        <time>2022-05-20T11:55:40Z</time>
      </trkpt>
      <trkpt lat="48.64617" lon="6.37691">
        <ele>321.2</ele>
        <time>2022-05-20T11:55:44Z</time>
      </trkpt>
      <trkpt lat="48.64618" lon="6.37668">
        <ele>318.2</ele>
        <time>2022-05-20T11:55:46Z</time>
      </trkpt>
      <trkpt lat="48.64618" lon="6.3763">
        <ele>314.2</ele>
        <time>2022-05-20T11:55:49Z</time>
      </trkpt>
      <trkpt lat="48.64616" lon="6.37592">
        <ele>310.4</ele>
        <time>2022-05-20T11:55:52Z</time>
      </trkpt>
      <trkpt lat="48.64617" lon="6.3758">
        <ele>308.6</ele>
        <time>2022-05-20T11:55:53Z</time>
      </trkpt>
      <trkpt lat="48.64618" lon="6.37567">
        <ele>307.2</ele>
        <time>2022-05-20T11:55:54Z</time>
      </trkpt>
      <trkpt lat="48.6462" lon="6.37509">
        <ele>303.2</ele>
        <time>2022-05-20T11:55:57Z</time>
      </trkpt>
      <trkpt lat="48.64626" lon="6.37451">
        <ele>298.8</ele>
        <time>2022-05-20T11:56:00Z</time>
      </trkpt>
      <trkpt lat="48.64625" lon="6.37433">
        <ele>298</ele>
        <time>2022-05-20T11:56:01Z</time>
      </trkpt>
      <trkpt lat="48.64624" lon="6.37416">
        <ele>296.2</ele>
        <time>2022-05-20T11:56:02Z</time>
      </trkpt>
      <trkpt lat="48.64622" lon="6.374">
        <ele>294.6</ele>
        <time>2022-05-20T11:56:03Z</time>
      </trkpt>
      <trkpt lat="48.64619" lon="6.37383">
        <ele>293.6</ele>
        <time>2022-05-20T11:56:04Z</time>
      </trkpt>
      <trkpt lat="48.64604" lon="6.37321">
        <ele>289.8</ele>
        <time>2022-05-20T11:56:09Z</time>
      </trkpt>
      <trkpt lat="48.64585" lon="6.37277">
        <ele>285.6</ele>
        <time>2022-05-20T11:56:13Z</time>
      </trkpt>
      <trkpt lat="48.64578" lon="6.37267">
        <ele>284.6</ele>
        <time>2022-05-20T11:56:14Z</time>
      </trkpt>
      <trkpt lat="48.64548" lon="6.37233">
        <ele>281.8</ele>
        <time>2022-05-20T11:56:18Z</time>
      </trkpt>
      <trkpt lat="48.64502" lon="6.37172">
        <ele>278.6</ele>
        <time>2022-05-20T11:56:24Z</time>
      </trkpt>
      <trkpt lat="48.64486" lon="6.37147">
        <ele>277</ele>
        <time>2022-05-20T11:56:27Z</time>
      </trkpt>
      <trkpt lat="48.64481" lon="6.37138">
        <ele>276.6</ele>
        <time>2022-05-20T11:56:28Z</time>
      </trkpt>
      <trkpt lat="48.6446" lon="6.37079">
        <ele>273.6</ele>
        <time>2022-05-20T11:56:34Z</time>
      </trkpt>
      <trkpt lat="48.64452" lon="6.37056">
        <ele>272.2</ele>
        <time>2022-05-20T11:56:37Z</time>
      </trkpt>
      <trkpt lat="48.64443" lon="6.37034">
        <ele>269.2</ele>
        <time>2022-05-20T11:56:46Z</time>
      </trkpt>
      <trkpt lat="48.64442" lon="6.37031">
        <ele>269</ele>
        <time>2022-05-20T11:56:52Z</time>
      </trkpt>
      <trkpt lat="48.64431" lon="6.37006">
        <ele>268.6</ele>
        <time>2022-05-20T11:57:44Z</time>
      </trkpt>
      <trkpt lat="48.64431" lon="6.37004">
        <ele>268.6</ele>
        <time>2022-05-20T11:57:45Z</time>
      </trkpt>
      <trkpt lat="48.64431" lon="6.37001">
        <ele>268.6</ele>
        <time>2022-05-20T11:57:46Z</time>
      </trkpt>
      <trkpt lat="48.64432" lon="6.36999">
        <ele>268.6</ele>
        <time>2022-05-20T11:57:47Z</time>
      </trkpt>
      <trkpt lat="48.6444" lon="6.36984">
        <ele>268.2</ele>
        <time>2022-05-20T11:57:53Z</time>
      </trkpt>
      <trkpt lat="48.64442" lon="6.36982">
        <ele>268.2</ele>
        <time>2022-05-20T11:57:54Z</time>
      </trkpt>
      <trkpt lat="48.64501" lon="6.3695">
        <ele>271</ele>
        <time>2022-05-20T11:58:18Z</time>
      </trkpt>
      <trkpt lat="48.64538" lon="6.36935">
        <ele>274</ele>
        <time>2022-05-20T11:58:41Z</time>
      </trkpt>
      <trkpt lat="48.6454" lon="6.36934">
        <ele>274.2</ele>
        <time>2022-05-20T11:58:42Z</time>
      </trkpt>
      <trkpt lat="48.64541" lon="6.36934">
        <ele>274.4</ele>
        <time>2022-05-20T11:58:43Z</time>
      </trkpt>
      <trkpt lat="48.64554" lon="6.3693">
        <ele>276</ele>
        <time>2022-05-20T11:58:50Z</time>
      </trkpt>
      <trkpt lat="48.64556" lon="6.36929">
        <ele>276.2</ele>
        <time>2022-05-20T11:58:51Z</time>
      </trkpt>
      <trkpt lat="48.64559" lon="6.36929">
        <ele>276.6</ele>
        <time>2022-05-20T11:58:52Z</time>
      </trkpt>
      <trkpt lat="48.64574" lon="6.36922">
        <ele>278.4</ele>
        <time>2022-05-20T11:59:02Z</time>
      </trkpt>
      <trkpt lat="48.64576" lon="6.36922">
        <ele>278.8</ele>
        <time>2022-05-20T11:59:03Z</time>
      </trkpt>
      <trkpt lat="48.64578" lon="6.36922">
        <ele>279</ele>
        <time>2022-05-20T11:59:04Z</time>
      </trkpt>
      <trkpt lat="48.64585" lon="6.36921">
        <ele>279.8</ele>
        <time>2022-05-20T11:59:07Z</time>
      </trkpt>
      <trkpt lat="48.64587" lon="6.3692">
        <ele>280</ele>
        <time>2022-05-20T11:59:08Z</time>
      </trkpt>
      <trkpt lat="48.64589" lon="6.36919">
        <ele>280.2</ele>
        <time>2022-05-20T11:59:09Z</time>
      </trkpt>
      <trkpt lat="48.6459" lon="6.36918">
        <ele>280.4</ele>
        <time>2022-05-20T11:59:10Z</time>
      </trkpt>
      <trkpt lat="48.64592" lon="6.36917">
        <ele>280.6</ele>
        <time>2022-05-20T11:59:11Z</time>
      </trkpt>
      <trkpt lat="48.64593" lon="6.36916">
        <ele>280.6</ele>
        <time>2022-05-20T11:59:12Z</time>
      </trkpt>
      <trkpt lat="48.64595" lon="6.36915">
        <ele>280.8</ele>
        <time>2022-05-20T11:59:13Z</time>
      </trkpt>
      <trkpt lat="48.64597" lon="6.36914">
        <ele>281</ele>
        <time>2022-05-20T11:59:14Z</time>
      </trkpt>
      <trkpt lat="48.64599" lon="6.36913">
        <ele>281</ele>
        <time>2022-05-20T11:59:15Z</time>
      </trkpt>
      <trkpt lat="48.64602" lon="6.36912">
        <ele>281.2</ele>
        <time>2022-05-20T11:59:16Z</time>
      </trkpt>
      <trkpt lat="48.64645" lon="6.36886">
        <ele>284.2</ele>
        <time>2022-05-20T11:59:37Z</time>
      </trkpt>
      <trkpt lat="48.64681" lon="6.36887">
        <ele>286.6</ele>
        <time>2022-05-20T11:59:59Z</time>
      </trkpt>
      <trkpt lat="48.64683" lon="6.36888">
        <ele>286.6</ele>
        <time>2022-05-20T12:00:00Z</time>
      </trkpt>
      <trkpt lat="48.64684" lon="6.36889">
        <ele>286.8</ele>
        <time>2022-05-20T12:00:01Z</time>
      </trkpt>
      <trkpt lat="48.64686" lon="6.36891">
        <ele>287</ele>
        <time>2022-05-20T12:00:02Z</time>
      </trkpt>
      <trkpt lat="48.64688" lon="6.36893">
        <ele>287.2</ele>
        <time>2022-05-20T12:00:03Z</time>
      </trkpt>
      <trkpt lat="48.6469" lon="6.36894">
        <ele>287.2</ele>
        <time>2022-05-20T12:00:04Z</time>
      </trkpt>
      <trkpt lat="48.64692" lon="6.36895">
        <ele>287.4</ele>
        <time>2022-05-20T12:00:05Z</time>
      </trkpt>
      <trkpt lat="48.64695" lon="6.36895">
        <ele>287.6</ele>
        <time>2022-05-20T12:00:06Z</time>
      </trkpt>
      <trkpt lat="48.64697" lon="6.36897">
        <ele>287.8</ele>
        <time>2022-05-20T12:00:07Z</time>
      </trkpt>
      <trkpt lat="48.64699" lon="6.36898">
        <ele>288</ele>
        <time>2022-05-20T12:00:08Z</time>
      </trkpt>
      <trkpt lat="48.64701" lon="6.369">
        <ele>288.2</ele>
        <time>2022-05-20T12:00:09Z</time>
      </trkpt>
      <trkpt lat="48.64703" lon="6.36903">
        <ele>288.4</ele>
        <time>2022-05-20T12:00:10Z</time>
      </trkpt>
      <trkpt lat="48.64706" lon="6.36906">
        <ele>288.4</ele>
        <time>2022-05-20T12:00:11Z</time>
      </trkpt>
      <trkpt lat="48.64738" lon="6.36934">
        <ele>291.6</ele>
        <time>2022-05-20T12:00:27Z</time>
      </trkpt>
      <trkpt lat="48.64764" lon="6.36954">
        <ele>294.8</ele>
        <time>2022-05-20T12:00:43Z</time>
      </trkpt>
      <trkpt lat="48.64778" lon="6.36964">
        <ele>297.8</ele>
        <time>2022-05-20T12:00:56Z</time>
      </trkpt>
      <trkpt lat="48.64794" lon="6.3698">
        <ele>301</ele>
        <time>2022-05-20T12:01:10Z</time>
      </trkpt>
      <trkpt lat="48.64808" lon="6.37">
        <ele>304.2</ele>
        <time>2022-05-20T12:01:25Z</time>
      </trkpt>
      <trkpt lat="48.64815" lon="6.37009">
        <ele>305.8</ele>
        <time>2022-05-20T12:01:31Z</time>
      </trkpt>
      <trkpt lat="48.64815" lon="6.37011">
        <ele>306</ele>
        <time>2022-05-20T12:01:32Z</time>
      </trkpt>
      <trkpt lat="48.64816" lon="6.37012">
        <ele>306.2</ele>
        <time>2022-05-20T12:01:33Z</time>
      </trkpt>
      <trkpt lat="48.64817" lon="6.37015">
        <ele>306.4</ele>
        <time>2022-05-20T12:01:34Z</time>
      </trkpt>
      <trkpt lat="48.64818" lon="6.37016">
        <ele>306.6</ele>
        <time>2022-05-20T12:01:35Z</time>
      </trkpt>
      <trkpt lat="48.64819" lon="6.37018">
        <ele>306.8</ele>
        <time>2022-05-20T12:01:36Z</time>
      </trkpt>
      <trkpt lat="48.64819" lon="6.3702">
        <ele>307</ele>
        <time>2022-05-20T12:01:37Z</time>
      </trkpt>
      <trkpt lat="48.64821" lon="6.37022">
        <ele>307.2</ele>
        <time>2022-05-20T12:01:38Z</time>
      </trkpt>
      <trkpt lat="48.64822" lon="6.37023">
        <ele>307.4</ele>
        <time>2022-05-20T12:01:39Z</time>
      </trkpt>
      <trkpt lat="48.64833" lon="6.37045">
        <ele>310.4</ele>
        <time>2022-05-20T12:01:51Z</time>
      </trkpt>
      <trkpt lat="48.64849" lon="6.37043">
        <ele>312.4</ele>
        <time>2022-05-20T12:02:03Z</time>
      </trkpt>
      <trkpt lat="48.64851" lon="6.37043">
        <ele>312.6</ele>
        <time>2022-05-20T12:02:04Z</time>
      </trkpt>
      <trkpt lat="48.64853" lon="6.37043">
        <ele>312.8</ele>
        <time>2022-05-20T12:02:05Z</time>
      </trkpt>
      <trkpt lat="48.64888" lon="6.37036">
        <ele>315.8</ele>
        <time>2022-05-20T12:02:25Z</time>
      </trkpt>
      <trkpt lat="48.6493" lon="6.37024">
        <ele>318.8</ele>
        <time>2022-05-20T12:02:46Z</time>
      </trkpt>
      <trkpt lat="48.64964" lon="6.36983">
        <ele>320.2</ele>
        <time>2022-05-20T12:03:13Z</time>
      </trkpt>
      <trkpt lat="48.64963" lon="6.3698">
        <ele>315.6</ele>
        <time>2022-05-20T12:09:22Z</time>
      </trkpt>
      <trkpt lat="48.64962" lon="6.36978">
        <ele>315.6</ele>
        <time>2022-05-20T12:09:23Z</time>
      </trkpt>
      <trkpt lat="48.64961" lon="6.36973">
        <ele>315.6</ele>
        <time>2022-05-20T12:09:25Z</time>
      </trkpt>
      <trkpt lat="48.64939" lon="6.36891">
        <ele>315.6</ele>
        <time>2022-05-20T12:09:42Z</time>
      </trkpt>
      <trkpt lat="48.64916" lon="6.36811">
        <ele>315.4</ele>
        <time>2022-05-20T12:09:57Z</time>
      </trkpt>
      <trkpt lat="48.64915" lon="6.36778">
        <ele>315.8</ele>
        <time>2022-05-20T12:10:04Z</time>
      </trkpt>
      <trkpt lat="48.6495" lon="6.36711">
        <ele>317.8</ele>
        <time>2022-05-20T12:10:21Z</time>
      </trkpt>
      <trkpt lat="48.6492" lon="6.36632">
        <ele>318.6</ele>
        <time>2022-05-20T12:10:37Z</time>
      </trkpt>
      <trkpt lat="48.64889" lon="6.36554">
        <ele>318.8</ele>
        <time>2022-05-20T12:10:51Z</time>
      </trkpt>
      <trkpt lat="48.64868" lon="6.36501">
        <ele>318.2</ele>
        <time>2022-05-20T12:11:00Z</time>
      </trkpt>
      <trkpt lat="48.64865" lon="6.36496">
        <ele>318</ele>
        <time>2022-05-20T12:11:01Z</time>
      </trkpt>
      <trkpt lat="48.64834" lon="6.36454">
        <ele>317.8</ele>
        <time>2022-05-20T12:11:10Z</time>
      </trkpt>
      <trkpt lat="48.64799" lon="6.36382">
        <ele>318</ele>
        <time>2022-05-20T12:11:23Z</time>
      </trkpt>
      <trkpt lat="48.64776" lon="6.36329">
        <ele>319.2</ele>
        <time>2022-05-20T12:11:34Z</time>
      </trkpt>
      <trkpt lat="48.64742" lon="6.36259">
        <ele>320</ele>
        <time>2022-05-20T12:11:49Z</time>
      </trkpt>
      <trkpt lat="48.64687" lon="6.36222">
        <ele>319.8</ele>
        <time>2022-05-20T12:12:05Z</time>
      </trkpt>
      <trkpt lat="48.64663" lon="6.36146">
        <ele>320.8</ele>
        <time>2022-05-20T12:12:26Z</time>
      </trkpt>
      <trkpt lat="48.64664" lon="6.36065">
        <ele>320.8</ele>
        <time>2022-05-20T12:12:41Z</time>
      </trkpt>
      <trkpt lat="48.64666" lon="6.36059">
        <ele>320.8</ele>
        <time>2022-05-20T12:12:42Z</time>
      </trkpt>
      <trkpt lat="48.64675" lon="6.36002">
        <ele>318.6</ele>
        <time>2022-05-20T12:12:53Z</time>
      </trkpt>
      <trkpt lat="48.64672" lon="6.36">
        <ele>318.4</ele>
        <time>2022-05-20T12:12:54Z</time>
      </trkpt>
      <trkpt lat="48.64669" lon="6.36">
        <ele>318.2</ele>
        <time>2022-05-20T12:12:55Z</time>
      </trkpt>
      <trkpt lat="48.64666" lon="6.36001">
        <ele>318.2</ele>
        <time>2022-05-20T12:12:56Z</time>
      </trkpt>
      <trkpt lat="48.64662" lon="6.36002">
        <ele>318.4</ele>
        <time>2022-05-20T12:12:57Z</time>
      </trkpt>
      <trkpt lat="48.64659" lon="6.36002">
        <ele>318.4</ele>
        <time>2022-05-20T12:12:58Z</time>
      </trkpt>
      <trkpt lat="48.64655" lon="6.36002">
        <ele>318.8</ele>
        <time>2022-05-20T12:12:59Z</time>
      </trkpt>
      <trkpt lat="48.64597" lon="6.35983">
        <ele>320.4</ele>
        <time>2022-05-20T12:13:15Z</time>
      </trkpt>
      <trkpt lat="48.64544" lon="6.35954">
        <ele>321.6</ele>
        <time>2022-05-20T12:13:31Z</time>
      </trkpt>
      <trkpt lat="48.6449" lon="6.3592">
        <ele>322.4</ele>
        <time>2022-05-20T12:13:47Z</time>
      </trkpt>
      <trkpt lat="48.64435" lon="6.359">
        <ele>323</ele>
        <time>2022-05-20T12:14:01Z</time>
      </trkpt>
      <trkpt lat="48.64377" lon="6.35906">
        <ele>324.4</ele>
        <time>2022-05-20T12:14:16Z</time>
      </trkpt>
      <trkpt lat="48.64322" lon="6.35924">
        <ele>325.8</ele>
        <time>2022-05-20T12:14:31Z</time>
      </trkpt>
      <trkpt lat="48.64269" lon="6.35948">
        <ele>326</ele>
        <time>2022-05-20T12:14:46Z</time>
      </trkpt>
      <trkpt lat="48.64227" lon="6.3597">
        <ele>326.4</ele>
        <time>2022-05-20T12:14:56Z</time>
      </trkpt>
      <trkpt lat="48.64211" lon="6.35977">
        <ele>326.2</ele>
        <time>2022-05-20T12:15:00Z</time>
      </trkpt>
      <trkpt lat="48.64158" lon="6.36007">
        <ele>325.8</ele>
        <time>2022-05-20T12:15:14Z</time>
      </trkpt>
      <trkpt lat="48.641" lon="6.36029">
        <ele>323</ele>
        <time>2022-05-20T12:15:31Z</time>
      </trkpt>
      <trkpt lat="48.64071" lon="6.36035">
        <ele>319.8</ele>
        <time>2022-05-20T12:15:40Z</time>
      </trkpt>
      <trkpt lat="48.64041" lon="6.36041">
        <ele>316.8</ele>
        <time>2022-05-20T12:15:55Z</time>
      </trkpt>
      <trkpt lat="48.6404" lon="6.36043">
        <ele>316.8</ele>
        <time>2022-05-20T12:15:59Z</time>
      </trkpt>
      <trkpt lat="48.64043" lon="6.36053">
        <ele>316.6</ele>
        <time>2022-05-20T12:16:20Z</time>
      </trkpt>
      <trkpt lat="48.64043" lon="6.36055">
        <ele>316.6</ele>
        <time>2022-05-20T12:16:21Z</time>
      </trkpt>
      <trkpt lat="48.64043" lon="6.36058">
        <ele>316.4</ele>
        <time>2022-05-20T12:16:22Z</time>
      </trkpt>
      <trkpt lat="48.64043" lon="6.3606">
        <ele>316.4</ele>
        <time>2022-05-20T12:16:23Z</time>
      </trkpt>
      <trkpt lat="48.64043" lon="6.36063">
        <ele>316.2</ele>
        <time>2022-05-20T12:16:24Z</time>
      </trkpt>
      <trkpt lat="48.64043" lon="6.36065">
        <ele>316.2</ele>
        <time>2022-05-20T12:16:25Z</time>
      </trkpt>
      <trkpt lat="48.64042" lon="6.36084">
        <ele>314.8</ele>
        <time>2022-05-20T12:16:33Z</time>
      </trkpt>
      <trkpt lat="48.64042" lon="6.36087">
        <ele>314.8</ele>
        <time>2022-05-20T12:16:34Z</time>
      </trkpt>
      <trkpt lat="48.64043" lon="6.36089">
        <ele>314.6</ele>
        <time>2022-05-20T12:16:35Z</time>
      </trkpt>
      <trkpt lat="48.64044" lon="6.36091">
        <ele>314.4</ele>
        <time>2022-05-20T12:16:36Z</time>
      </trkpt>
      <trkpt lat="48.64045" lon="6.36092">
        <ele>314.4</ele>
        <time>2022-05-20T12:16:37Z</time>
      </trkpt>
      <trkpt lat="48.64046" lon="6.36093">
        <ele>314.4</ele>
        <time>2022-05-20T12:16:38Z</time>
      </trkpt>
      <trkpt lat="48.64064" lon="6.36112">
        <ele>315.2</ele>
        <time>2022-05-20T12:16:53Z</time>
      </trkpt>
      <trkpt lat="48.64065" lon="6.36114">
        <ele>315.2</ele>
        <time>2022-05-20T12:16:54Z</time>
      </trkpt>
      <trkpt lat="48.64066" lon="6.36115">
        <ele>315.2</ele>
        <time>2022-05-20T12:16:55Z</time>
      </trkpt>
      <trkpt lat="48.64067" lon="6.36116">
        <ele>315</ele>
        <time>2022-05-20T12:16:56Z</time>
      </trkpt>
      <trkpt lat="48.64069" lon="6.36118">
        <ele>315</ele>
        <time>2022-05-20T12:16:57Z</time>
      </trkpt>
      <trkpt lat="48.64069" lon="6.3612">
        <ele>315</ele>
        <time>2022-05-20T12:16:58Z</time>
      </trkpt>
      <trkpt lat="48.64071" lon="6.36123">
        <ele>315</ele>
        <time>2022-05-20T12:17:00Z</time>
      </trkpt>
      <trkpt lat="48.64073" lon="6.36125">
        <ele>315</ele>
        <time>2022-05-20T12:17:03Z</time>
      </trkpt>
      <trkpt lat="48.64074" lon="6.36126">
        <ele>315</ele>
        <time>2022-05-20T12:17:04Z</time>
      </trkpt>
      <trkpt lat="48.64075" lon="6.36127">
        <ele>315</ele>
        <time>2022-05-20T12:17:05Z</time>
      </trkpt>
      <trkpt lat="48.64077" lon="6.36129">
        <ele>315</ele>
        <time>2022-05-20T12:17:06Z</time>
      </trkpt>
      <trkpt lat="48.64078" lon="6.3613">
        <ele>315</ele>
        <time>2022-05-20T12:17:07Z</time>
      </trkpt>
      <trkpt lat="48.64079" lon="6.36131">
        <ele>315</ele>
        <time>2022-05-20T12:17:08Z</time>
      </trkpt>
      <trkpt lat="48.6408" lon="6.36132">
        <ele>315</ele>
        <time>2022-05-20T12:17:09Z</time>
      </trkpt>
      <trkpt lat="48.64081" lon="6.36133">
        <ele>315</ele>
        <time>2022-05-20T12:17:10Z</time>
      </trkpt>
      <trkpt lat="48.64083" lon="6.36136">
        <ele>315</ele>
        <time>2022-05-20T12:17:13Z</time>
      </trkpt>
      <trkpt lat="48.64084" lon="6.36139">
        <ele>314.8</ele>
        <time>2022-05-20T12:17:15Z</time>
      </trkpt>
      <trkpt lat="48.6409" lon="6.36147">
        <ele>314.6</ele>
        <time>2022-05-20T12:17:24Z</time>
      </trkpt>
      <trkpt lat="48.64091" lon="6.36149">
        <ele>314.8</ele>
        <time>2022-05-20T12:17:25Z</time>
      </trkpt>
      <trkpt lat="48.64093" lon="6.3615">
        <ele>314.8</ele>
        <time>2022-05-20T12:17:26Z</time>
      </trkpt>
      <trkpt lat="48.64106" lon="6.36167">
        <ele>314.4</ele>
        <time>2022-05-20T12:17:34Z</time>
      </trkpt>
      <trkpt lat="48.64108" lon="6.36169">
        <ele>314.4</ele>
        <time>2022-05-20T12:17:35Z</time>
      </trkpt>
      <trkpt lat="48.64128" lon="6.36204">
        <ele>312.6</ele>
        <time>2022-05-20T12:17:47Z</time>
      </trkpt>
      <trkpt lat="48.64132" lon="6.36221">
        <ele>311.8</ele>
        <time>2022-05-20T12:17:49Z</time>
      </trkpt>
      <trkpt lat="48.64134" lon="6.3623">
        <ele>311.2</ele>
        <time>2022-05-20T12:17:50Z</time>
      </trkpt>
      <trkpt lat="48.64134" lon="6.36237">
        <ele>310.8</ele>
        <time>2022-05-20T12:17:51Z</time>
      </trkpt>
      <trkpt lat="48.64133" lon="6.36253">
        <ele>309.4</ele>
        <time>2022-05-20T12:17:53Z</time>
      </trkpt>
      <trkpt lat="48.64133" lon="6.36259">
        <ele>309</ele>
        <time>2022-05-20T12:17:54Z</time>
      </trkpt>
      <trkpt lat="48.64134" lon="6.36265">
        <ele>307.8</ele>
        <time>2022-05-20T12:17:55Z</time>
      </trkpt>
      <trkpt lat="48.64134" lon="6.3627">
        <ele>307.2</ele>
        <time>2022-05-20T12:17:56Z</time>
      </trkpt>
      <trkpt lat="48.64136" lon="6.36274">
        <ele>306.6</ele>
        <time>2022-05-20T12:17:57Z</time>
      </trkpt>
      <trkpt lat="48.64138" lon="6.36278">
        <ele>306.4</ele>
        <time>2022-05-20T12:17:58Z</time>
      </trkpt>
      <trkpt lat="48.64149" lon="6.3631">
        <ele>304.8</ele>
        <time>2022-05-20T12:18:02Z</time>
      </trkpt>
      <trkpt lat="48.6416" lon="6.3634">
        <ele>303.4</ele>
        <time>2022-05-20T12:18:05Z</time>
      </trkpt>
      <trkpt lat="48.64173" lon="6.36368">
        <ele>301.6</ele>
        <time>2022-05-20T12:18:08Z</time>
      </trkpt>
      <trkpt lat="48.6418" lon="6.36377">
        <ele>301.2</ele>
        <time>2022-05-20T12:18:09Z</time>
      </trkpt>
      <trkpt lat="48.64206" lon="6.36408">
        <ele>299.6</ele>
        <time>2022-05-20T12:18:13Z</time>
      </trkpt>
      <trkpt lat="48.64211" lon="6.36416">
        <ele>299.2</ele>
        <time>2022-05-20T12:18:14Z</time>
      </trkpt>
      <trkpt lat="48.64239" lon="6.36459">
        <ele>295.6</ele>
        <time>2022-05-20T12:18:19Z</time>
      </trkpt>
      <trkpt lat="48.64249" lon="6.36483">
        <ele>292</ele>
        <time>2022-05-20T12:18:22Z</time>
      </trkpt>
      <trkpt lat="48.64254" lon="6.36494">
        <ele>291</ele>
        <time>2022-05-20T12:18:23Z</time>
      </trkpt>
      <trkpt lat="48.64256" lon="6.36505">
        <ele>289.4</ele>
        <time>2022-05-20T12:18:24Z</time>
      </trkpt>
      <trkpt lat="48.64258" lon="6.36515">
        <ele>288.4</ele>
        <time>2022-05-20T12:18:25Z</time>
      </trkpt>
      <trkpt lat="48.64258" lon="6.36523">
        <ele>287</ele>
        <time>2022-05-20T12:18:26Z</time>
      </trkpt>
      <trkpt lat="48.64257" lon="6.3653">
        <ele>286.2</ele>
        <time>2022-05-20T12:18:27Z</time>
      </trkpt>
      <trkpt lat="48.64257" lon="6.36538">
        <ele>285.4</ele>
        <time>2022-05-20T12:18:28Z</time>
      </trkpt>
      <trkpt lat="48.64258" lon="6.36544">
        <ele>284.4</ele>
        <time>2022-05-20T12:18:29Z</time>
      </trkpt>
      <trkpt lat="48.64261" lon="6.36551">
        <ele>283.6</ele>
        <time>2022-05-20T12:18:30Z</time>
      </trkpt>
      <trkpt lat="48.64263" lon="6.36556">
        <ele>283</ele>
        <time>2022-05-20T12:18:31Z</time>
      </trkpt>
      <trkpt lat="48.64262" lon="6.36562">
        <ele>282.4</ele>
        <time>2022-05-20T12:18:32Z</time>
      </trkpt>
      <trkpt lat="48.64261" lon="6.36568">
        <ele>281.6</ele>
        <time>2022-05-20T12:18:33Z</time>
      </trkpt>
      <trkpt lat="48.64259" lon="6.36574">
        <ele>281</ele>
        <time>2022-05-20T12:18:34Z</time>
      </trkpt>
      <trkpt lat="48.64254" lon="6.36586">
        <ele>280</ele>
        <time>2022-05-20T12:18:36Z</time>
      </trkpt>
      <trkpt lat="48.64248" lon="6.3659">
        <ele>279.4</ele>
        <time>2022-05-20T12:18:37Z</time>
      </trkpt>
      <trkpt lat="48.64243" lon="6.36596">
        <ele>278.8</ele>
        <time>2022-05-20T12:18:38Z</time>
      </trkpt>
      <trkpt lat="48.6424" lon="6.36604">
        <ele>278.2</ele>
        <time>2022-05-20T12:18:39Z</time>
      </trkpt>
      <trkpt lat="48.64238" lon="6.36611">
        <ele>277.6</ele>
        <time>2022-05-20T12:18:40Z</time>
      </trkpt>
      <trkpt lat="48.64236" lon="6.36618">
        <ele>277</ele>
        <time>2022-05-20T12:18:41Z</time>
      </trkpt>
      <trkpt lat="48.64235" lon="6.36627">
        <ele>276.4</ele>
        <time>2022-05-20T12:18:42Z</time>
      </trkpt>
      <trkpt lat="48.64233" lon="6.36635">
        <ele>275.6</ele>
        <time>2022-05-20T12:18:43Z</time>
      </trkpt>
      <trkpt lat="48.64227" lon="6.36648">
        <ele>274</ele>
        <time>2022-05-20T12:18:45Z</time>
      </trkpt>
      <trkpt lat="48.64222" lon="6.36653">
        <ele>273.4</ele>
        <time>2022-05-20T12:18:46Z</time>
      </trkpt>
      <trkpt lat="48.64195" lon="6.36679">
        <ele>270.4</ele>
        <time>2022-05-20T12:18:50Z</time>
      </trkpt>
      <trkpt lat="48.64181" lon="6.36694">
        <ele>267.2</ele>
        <time>2022-05-20T12:18:52Z</time>
      </trkpt>
      <trkpt lat="48.64169" lon="6.36706">
        <ele>263.6</ele>
        <time>2022-05-20T12:18:55Z</time>
      </trkpt>
      <trkpt lat="48.64166" lon="6.36714">
        <ele>262.8</ele>
        <time>2022-05-20T12:18:57Z</time>
      </trkpt>
      <trkpt lat="48.64162" lon="6.36733">
        <ele>262.2</ele>
        <time>2022-05-20T12:19:04Z</time>
      </trkpt>
      <trkpt lat="48.64162" lon="6.36734">
        <ele>262.2</ele>
        <time>2022-05-20T12:19:05Z</time>
      </trkpt>
      <trkpt lat="48.64161" lon="6.3674">
        <ele>262.2</ele>
        <time>2022-05-20T12:19:15Z</time>
      </trkpt>
      <trkpt lat="48.64157" lon="6.36739">
        <ele>262.4</ele>
        <time>2022-05-20T12:20:23Z</time>
      </trkpt>
      <trkpt lat="48.64156" lon="6.36737">
        <ele>262.4</ele>
        <time>2022-05-20T12:20:24Z</time>
      </trkpt>
      <trkpt lat="48.64129" lon="6.36663">
        <ele>265.2</ele>
        <time>2022-05-20T12:20:49Z</time>
      </trkpt>
      <trkpt lat="48.64114" lon="6.36599">
        <ele>268.2</ele>
        <time>2022-05-20T12:21:12Z</time>
      </trkpt>
      <trkpt lat="48.64107" lon="6.36579">
        <ele>269</ele>
        <time>2022-05-20T12:21:20Z</time>
      </trkpt>
      <trkpt lat="48.64105" lon="6.36577">
        <ele>269.2</ele>
        <time>2022-05-20T12:21:21Z</time>
      </trkpt>
      <trkpt lat="48.64103" lon="6.36576">
        <ele>269.2</ele>
        <time>2022-05-20T12:21:22Z</time>
      </trkpt>
      <trkpt lat="48.64101" lon="6.36575">
        <ele>269.2</ele>
        <time>2022-05-20T12:21:23Z</time>
      </trkpt>
      <trkpt lat="48.64099" lon="6.36574">
        <ele>269.2</ele>
        <time>2022-05-20T12:21:24Z</time>
      </trkpt>
      <trkpt lat="48.64097" lon="6.36574">
        <ele>269.4</ele>
        <time>2022-05-20T12:21:25Z</time>
      </trkpt>
      <trkpt lat="48.64095" lon="6.36575">
        <ele>269.4</ele>
        <time>2022-05-20T12:21:26Z</time>
      </trkpt>
      <trkpt lat="48.64093" lon="6.36577">
        <ele>269.4</ele>
        <time>2022-05-20T12:21:27Z</time>
      </trkpt>
      <trkpt lat="48.64091" lon="6.36579">
        <ele>269.6</ele>
        <time>2022-05-20T12:21:28Z</time>
      </trkpt>
      <trkpt lat="48.64089" lon="6.36582">
        <ele>269.6</ele>
        <time>2022-05-20T12:21:29Z</time>
      </trkpt>
      <trkpt lat="48.64087" lon="6.36585">
        <ele>269.6</ele>
        <time>2022-05-20T12:21:30Z</time>
      </trkpt>
      <trkpt lat="48.64084" lon="6.36588">
        <ele>269.8</ele>
        <time>2022-05-20T12:21:31Z</time>
      </trkpt>
      <trkpt lat="48.64072" lon="6.36599">
        <ele>271.2</ele>
        <time>2022-05-20T12:21:36Z</time>
      </trkpt>
      <trkpt lat="48.64069" lon="6.36598">
        <ele>271.4</ele>
        <time>2022-05-20T12:21:37Z</time>
      </trkpt>
      <trkpt lat="48.64066" lon="6.36597">
        <ele>271.6</ele>
        <time>2022-05-20T12:21:38Z</time>
      </trkpt>
      <trkpt lat="48.64064" lon="6.36596">
        <ele>272</ele>
        <time>2022-05-20T12:21:39Z</time>
      </trkpt>
      <trkpt lat="48.64061" lon="6.36594">
        <ele>272.2</ele>
        <time>2022-05-20T12:21:40Z</time>
      </trkpt>
      <trkpt lat="48.6406" lon="6.36593">
        <ele>272.4</ele>
        <time>2022-05-20T12:21:41Z</time>
      </trkpt>
      <trkpt lat="48.64058" lon="6.36591">
        <ele>272.8</ele>
        <time>2022-05-20T12:21:42Z</time>
      </trkpt>
      <trkpt lat="48.64056" lon="6.36589">
        <ele>273</ele>
        <time>2022-05-20T12:21:43Z</time>
      </trkpt>
      <trkpt lat="48.64054" lon="6.36587">
        <ele>273.2</ele>
        <time>2022-05-20T12:21:44Z</time>
      </trkpt>
      <trkpt lat="48.64013" lon="6.36599">
        <ele>270.8</ele>
        <time>2022-05-20T12:22:07Z</time>
      </trkpt>
      <trkpt lat="48.64008" lon="6.36596">
        <ele>270.4</ele>
        <time>2022-05-20T12:22:08Z</time>
      </trkpt>
      <trkpt lat="48.64004" lon="6.36593">
        <ele>270.2</ele>
        <time>2022-05-20T12:22:09Z</time>
      </trkpt>
      <trkpt lat="48.64001" lon="6.3659">
        <ele>270.2</ele>
        <time>2022-05-20T12:22:10Z</time>
      </trkpt>
      <trkpt lat="48.63998" lon="6.36586">
        <ele>270.2</ele>
        <time>2022-05-20T12:22:11Z</time>
      </trkpt>
      <trkpt lat="48.63995" lon="6.36583">
        <ele>270</ele>
        <time>2022-05-20T12:22:12Z</time>
      </trkpt>
      <trkpt lat="48.63946" lon="6.36525">
        <ele>271.2</ele>
        <time>2022-05-20T12:22:32Z</time>
      </trkpt>
      <trkpt lat="48.63902" lon="6.36464">
        <ele>271</ele>
        <time>2022-05-20T12:22:51Z</time>
      </trkpt>
      <trkpt lat="48.63869" lon="6.36418">
        <ele>269.6</ele>
        <time>2022-05-20T12:23:02Z</time>
      </trkpt>
      <trkpt lat="48.63865" lon="6.36414">
        <ele>269.4</ele>
        <time>2022-05-20T12:23:03Z</time>
      </trkpt>
      <trkpt lat="48.63836" lon="6.36379">
        <ele>267.8</ele>
        <time>2022-05-20T12:23:10Z</time>
      </trkpt>
      <trkpt lat="48.63833" lon="6.36375">
        <ele>267.8</ele>
        <time>2022-05-20T12:23:11Z</time>
      </trkpt>
      <trkpt lat="48.63792" lon="6.36321">
        <ele>270.8</ele>
        <time>2022-05-20T12:23:36Z</time>
      </trkpt>
      <trkpt lat="48.63792" lon="6.36319">
        <ele>271</ele>
        <time>2022-05-20T12:23:37Z</time>
      </trkpt>
      <trkpt lat="48.63792" lon="6.36317">
        <ele>271.2</ele>
        <time>2022-05-20T12:23:38Z</time>
      </trkpt>
      <trkpt lat="48.63792" lon="6.36314">
        <ele>271.4</ele>
        <time>2022-05-20T12:23:39Z</time>
      </trkpt>
      <trkpt lat="48.63791" lon="6.36312">
        <ele>271.6</ele>
        <time>2022-05-20T12:23:40Z</time>
      </trkpt>
      <trkpt lat="48.63792" lon="6.3631">
        <ele>271.8</ele>
        <time>2022-05-20T12:23:41Z</time>
      </trkpt>
      <trkpt lat="48.63802" lon="6.36284">
        <ele>275</ele>
        <time>2022-05-20T12:23:55Z</time>
      </trkpt>
      <trkpt lat="48.63804" lon="6.36276">
        <ele>276</ele>
        <time>2022-05-20T12:23:59Z</time>
      </trkpt>
      <trkpt lat="48.63807" lon="6.36274">
        <ele>276.6</ele>
        <time>2022-05-20T12:24:01Z</time>
      </trkpt>
      <trkpt lat="48.6381" lon="6.36272">
        <ele>276.8</ele>
        <time>2022-05-20T12:24:02Z</time>
      </trkpt>
      <trkpt lat="48.63811" lon="6.36271">
        <ele>277</ele>
        <time>2022-05-20T12:24:03Z</time>
      </trkpt>
      <trkpt lat="48.63812" lon="6.36269">
        <ele>277.2</ele>
        <time>2022-05-20T12:24:04Z</time>
      </trkpt>
      <trkpt lat="48.63813" lon="6.36268">
        <ele>277.4</ele>
        <time>2022-05-20T12:24:05Z</time>
      </trkpt>
      <trkpt lat="48.63817" lon="6.36259">
        <ele>278.8</ele>
        <time>2022-05-20T12:24:10Z</time>
      </trkpt>
      <trkpt lat="48.63818" lon="6.36257">
        <ele>279</ele>
        <time>2022-05-20T12:24:11Z</time>
      </trkpt>
      <trkpt lat="48.63818" lon="6.36256">
        <ele>279.2</ele>
        <time>2022-05-20T12:24:12Z</time>
      </trkpt>
      <trkpt lat="48.63819" lon="6.36243">
        <ele>280.6</ele>
        <time>2022-05-20T12:24:18Z</time>
      </trkpt>
      <trkpt lat="48.6382" lon="6.36241">
        <ele>280.8</ele>
        <time>2022-05-20T12:24:19Z</time>
      </trkpt>
      <trkpt lat="48.6382" lon="6.36239">
        <ele>281</ele>
        <time>2022-05-20T12:24:20Z</time>
      </trkpt>
      <trkpt lat="48.6382" lon="6.36236">
        <ele>281.4</ele>
        <time>2022-05-20T12:24:21Z</time>
      </trkpt>
      <trkpt lat="48.63821" lon="6.36234">
        <ele>281.6</ele>
        <time>2022-05-20T12:24:22Z</time>
      </trkpt>
      <trkpt lat="48.63821" lon="6.36231">
        <ele>281.8</ele>
        <time>2022-05-20T12:24:23Z</time>
      </trkpt>
      <trkpt lat="48.63822" lon="6.36227">
        <ele>282</ele>
        <time>2022-05-20T12:24:24Z</time>
      </trkpt>
      <trkpt lat="48.63823" lon="6.36225">
        <ele>282.2</ele>
        <time>2022-05-20T12:24:25Z</time>
      </trkpt>
      <trkpt lat="48.63824" lon="6.36223">
        <ele>282.4</ele>
        <time>2022-05-20T12:24:26Z</time>
      </trkpt>
      <trkpt lat="48.63825" lon="6.36221">
        <ele>282.8</ele>
        <time>2022-05-20T12:24:27Z</time>
      </trkpt>
      <trkpt lat="48.63826" lon="6.36219">
        <ele>283</ele>
        <time>2022-05-20T12:24:28Z</time>
      </trkpt>
      <trkpt lat="48.63828" lon="6.36215">
        <ele>283.4</ele>
        <time>2022-05-20T12:24:30Z</time>
      </trkpt>
      <trkpt lat="48.63829" lon="6.36213">
        <ele>283.6</ele>
        <time>2022-05-20T12:24:31Z</time>
      </trkpt>
      <trkpt lat="48.6383" lon="6.36211">
        <ele>283.8</ele>
        <time>2022-05-20T12:24:32Z</time>
      </trkpt>
      <trkpt lat="48.6383" lon="6.36209">
        <ele>284</ele>
        <time>2022-05-20T12:24:33Z</time>
      </trkpt>
      <trkpt lat="48.6383" lon="6.36207">
        <ele>284.2</ele>
        <time>2022-05-20T12:24:34Z</time>
      </trkpt>
      <trkpt lat="48.63831" lon="6.36205">
        <ele>284.6</ele>
        <time>2022-05-20T12:24:35Z</time>
      </trkpt>
      <trkpt lat="48.63835" lon="6.36186">
        <ele>286.6</ele>
        <time>2022-05-20T12:24:43Z</time>
      </trkpt>
      <trkpt lat="48.63836" lon="6.36184">
        <ele>286.8</ele>
        <time>2022-05-20T12:24:44Z</time>
      </trkpt>
      <trkpt lat="48.63837" lon="6.36183">
        <ele>287.2</ele>
        <time>2022-05-20T12:24:45Z</time>
      </trkpt>
      <trkpt lat="48.63838" lon="6.36181">
        <ele>287.4</ele>
        <time>2022-05-20T12:24:46Z</time>
      </trkpt>
      <trkpt lat="48.63839" lon="6.36179">
        <ele>287.6</ele>
        <time>2022-05-20T12:24:47Z</time>
      </trkpt>
      <trkpt lat="48.63839" lon="6.36177">
        <ele>287.8</ele>
        <time>2022-05-20T12:24:48Z</time>
      </trkpt>
      <trkpt lat="48.63853" lon="6.36162">
        <ele>290.8</ele>
        <time>2022-05-20T12:25:01Z</time>
      </trkpt>
      <trkpt lat="48.63854" lon="6.36161">
        <ele>291</ele>
        <time>2022-05-20T12:25:02Z</time>
      </trkpt>
      <trkpt lat="48.63856" lon="6.36159">
        <ele>291.4</ele>
        <time>2022-05-20T12:25:04Z</time>
      </trkpt>
      <trkpt lat="48.63857" lon="6.36159">
        <ele>291.6</ele>
        <time>2022-05-20T12:25:05Z</time>
      </trkpt>
      <trkpt lat="48.63859" lon="6.36158">
        <ele>291.8</ele>
        <time>2022-05-20T12:25:06Z</time>
      </trkpt>
      <trkpt lat="48.6386" lon="6.36154">
        <ele>292.4</ele>
        <time>2022-05-20T12:25:08Z</time>
      </trkpt>
      <trkpt lat="48.63861" lon="6.36152">
        <ele>292.6</ele>
        <time>2022-05-20T12:25:09Z</time>
      </trkpt>
      <trkpt lat="48.63865" lon="6.36143">
        <ele>293.6</ele>
        <time>2022-05-20T12:25:13Z</time>
      </trkpt>
      <trkpt lat="48.63867" lon="6.36141">
        <ele>293.8</ele>
        <time>2022-05-20T12:25:14Z</time>
      </trkpt>
      <trkpt lat="48.63867" lon="6.36139">
        <ele>294</ele>
        <time>2022-05-20T12:25:15Z</time>
      </trkpt>
      <trkpt lat="48.63869" lon="6.36138">
        <ele>294.2</ele>
        <time>2022-05-20T12:25:16Z</time>
      </trkpt>
      <trkpt lat="48.6387" lon="6.36136">
        <ele>294.4</ele>
        <time>2022-05-20T12:25:17Z</time>
      </trkpt>
      <trkpt lat="48.63871" lon="6.36134">
        <ele>294.6</ele>
        <time>2022-05-20T12:25:18Z</time>
      </trkpt>
      <trkpt lat="48.63873" lon="6.36133">
        <ele>294.8</ele>
        <time>2022-05-20T12:25:19Z</time>
      </trkpt>
      <trkpt lat="48.63874" lon="6.3613">
        <ele>295</ele>
        <time>2022-05-20T12:25:20Z</time>
      </trkpt>
      <trkpt lat="48.63874" lon="6.36127">
        <ele>295.2</ele>
        <time>2022-05-20T12:25:21Z</time>
      </trkpt>
      <trkpt lat="48.63875" lon="6.36125">
        <ele>295.4</ele>
        <time>2022-05-20T12:25:22Z</time>
      </trkpt>
      <trkpt lat="48.63877" lon="6.36123">
        <ele>295.6</ele>
        <time>2022-05-20T12:25:23Z</time>
      </trkpt>
      <trkpt lat="48.63878" lon="6.36122">
        <ele>295.8</ele>
        <time>2022-05-20T12:25:24Z</time>
      </trkpt>
      <trkpt lat="48.6388" lon="6.3612">
        <ele>296</ele>
        <time>2022-05-20T12:25:25Z</time>
      </trkpt>
      <trkpt lat="48.63881" lon="6.36119">
        <ele>296.2</ele>
        <time>2022-05-20T12:25:26Z</time>
      </trkpt>
      <trkpt lat="48.63882" lon="6.36117">
        <ele>296.4</ele>
        <time>2022-05-20T12:25:27Z</time>
      </trkpt>
      <trkpt lat="48.63883" lon="6.36115">
        <ele>296.6</ele>
        <time>2022-05-20T12:25:28Z</time>
      </trkpt>
      <trkpt lat="48.63885" lon="6.36113">
        <ele>296.8</ele>
        <time>2022-05-20T12:25:29Z</time>
      </trkpt>
      <trkpt lat="48.63887" lon="6.36113">
        <ele>297</ele>
        <time>2022-05-20T12:25:30Z</time>
      </trkpt>
      <trkpt lat="48.63888" lon="6.36112">
        <ele>297.2</ele>
        <time>2022-05-20T12:25:31Z</time>
      </trkpt>
      <trkpt lat="48.63889" lon="6.36109">
        <ele>297.2</ele>
        <time>2022-05-20T12:25:32Z</time>
      </trkpt>
      <trkpt lat="48.63901" lon="6.36088">
        <ele>298.6</ele>
        <time>2022-05-20T12:25:44Z</time>
      </trkpt>
      <trkpt lat="48.63903" lon="6.36083">
        <ele>299</ele>
        <time>2022-05-20T12:25:47Z</time>
      </trkpt>
      <trkpt lat="48.63905" lon="6.36082">
        <ele>299.2</ele>
        <time>2022-05-20T12:25:48Z</time>
      </trkpt>
      <trkpt lat="48.63906" lon="6.36081">
        <ele>299.4</ele>
        <time>2022-05-20T12:25:49Z</time>
      </trkpt>
      <trkpt lat="48.63933" lon="6.36062">
        <ele>302.4</ele>
        <time>2022-05-20T12:26:08Z</time>
      </trkpt>
      <trkpt lat="48.63955" lon="6.36043">
        <ele>305.6</ele>
        <time>2022-05-20T12:26:25Z</time>
      </trkpt>
      <trkpt lat="48.63975" lon="6.36039">
        <ele>308.8</ele>
        <time>2022-05-20T12:26:38Z</time>
      </trkpt>
      <trkpt lat="48.63977" lon="6.36039">
        <ele>309</ele>
        <time>2022-05-20T12:26:39Z</time>
      </trkpt>
      <trkpt lat="48.63979" lon="6.3604">
        <ele>309.4</ele>
        <time>2022-05-20T12:26:40Z</time>
      </trkpt>
      <trkpt lat="48.63988" lon="6.36041">
        <ele>310.4</ele>
        <time>2022-05-20T12:26:45Z</time>
      </trkpt>
      <trkpt lat="48.64022" lon="6.36036">
        <ele>313.6</ele>
        <time>2022-05-20T12:27:03Z</time>
      </trkpt>
      <trkpt lat="48.64041" lon="6.36027">
        <ele>315.2</ele>
        <time>2022-05-20T12:27:14Z</time>
      </trkpt>
      <trkpt lat="48.64044" lon="6.36027">
        <ele>315.2</ele>
        <time>2022-05-20T12:27:15Z</time>
      </trkpt>
      <trkpt lat="48.64046" lon="6.36027">
        <ele>315.4</ele>
        <time>2022-05-20T12:27:16Z</time>
      </trkpt>
      <trkpt lat="48.6406" lon="6.36024">
        <ele>317.2</ele>
        <time>2022-05-20T12:27:25Z</time>
      </trkpt>
      <trkpt lat="48.64061" lon="6.36023">
        <ele>317.2</ele>
        <time>2022-05-20T12:27:26Z</time>
      </trkpt>
      <trkpt lat="48.64092" lon="6.36005">
        <ele>320.4</ele>
        <time>2022-05-20T12:27:49Z</time>
      </trkpt>
      <trkpt lat="48.64106" lon="6.36005">
        <ele>320.8</ele>
        <time>2022-05-20T12:27:57Z</time>
      </trkpt>
      <trkpt lat="48.64108" lon="6.36006">
        <ele>320.8</ele>
        <time>2022-05-20T12:27:58Z</time>
      </trkpt>
      <trkpt lat="48.64118" lon="6.36012">
        <ele>320.6</ele>
        <time>2022-05-20T12:28:16Z</time>
      </trkpt>
      <trkpt lat="48.64114" lon="6.36005">
        <ele>320.6</ele>
        <time>2022-05-20T12:28:48Z</time>
      </trkpt>
      <trkpt lat="48.64113" lon="6.36003">
        <ele>320.6</ele>
        <time>2022-05-20T12:28:49Z</time>
      </trkpt>
      <trkpt lat="48.64112" lon="6.36002">
        <ele>320.6</ele>
        <time>2022-05-20T12:28:50Z</time>
      </trkpt>
      <trkpt lat="48.6411" lon="6.36">
        <ele>320.4</ele>
        <time>2022-05-20T12:28:51Z</time>
      </trkpt>
      <trkpt lat="48.64068" lon="6.35945">
        <ele>319.4</ele>
        <time>2022-05-20T12:29:11Z</time>
      </trkpt>
      <trkpt lat="48.64034" lon="6.35892">
        <ele>316.8</ele>
        <time>2022-05-20T12:29:21Z</time>
      </trkpt>
      <trkpt lat="48.6403" lon="6.35883">
        <ele>316.6</ele>
        <time>2022-05-20T12:29:22Z</time>
      </trkpt>
      <trkpt lat="48.6401" lon="6.35822">
        <ele>313</ele>
        <time>2022-05-20T12:29:28Z</time>
      </trkpt>
      <trkpt lat="48.64006" lon="6.35812">
        <ele>312.2</ele>
        <time>2022-05-20T12:29:29Z</time>
      </trkpt>
      <trkpt lat="48.63996" lon="6.3579">
        <ele>308.8</ele>
        <time>2022-05-20T12:29:31Z</time>
      </trkpt>
      <trkpt lat="48.6399" lon="6.35778">
        <ele>307.4</ele>
        <time>2022-05-20T12:29:32Z</time>
      </trkpt>
      <trkpt lat="48.63976" lon="6.35754">
        <ele>303.6</ele>
        <time>2022-05-20T12:29:34Z</time>
      </trkpt>
      <trkpt lat="48.6396" lon="6.35729">
        <ele>299</ele>
        <time>2022-05-20T12:29:36Z</time>
      </trkpt>
      <trkpt lat="48.63943" lon="6.35703">
        <ele>294.8</ele>
        <time>2022-05-20T12:29:38Z</time>
      </trkpt>
      <trkpt lat="48.63925" lon="6.35679">
        <ele>289.2</ele>
        <time>2022-05-20T12:29:40Z</time>
      </trkpt>
      <trkpt lat="48.63908" lon="6.3566">
        <ele>284.8</ele>
        <time>2022-05-20T12:29:42Z</time>
      </trkpt>
      <trkpt lat="48.63899" lon="6.35651">
        <ele>282.6</ele>
        <time>2022-05-20T12:29:43Z</time>
      </trkpt>
      <trkpt lat="48.63889" lon="6.35645">
        <ele>281</ele>
        <time>2022-05-20T12:29:44Z</time>
      </trkpt>
      <trkpt lat="48.63878" lon="6.35639">
        <ele>279.4</ele>
        <time>2022-05-20T12:29:45Z</time>
      </trkpt>
      <trkpt lat="48.63844" lon="6.35621">
        <ele>275.2</ele>
        <time>2022-05-20T12:29:48Z</time>
      </trkpt>
      <trkpt lat="48.63821" lon="6.35606">
        <ele>271.8</ele>
        <time>2022-05-20T12:29:50Z</time>
      </trkpt>
      <trkpt lat="48.63798" lon="6.35589">
        <ele>267.6</ele>
        <time>2022-05-20T12:29:53Z</time>
      </trkpt>
      <trkpt lat="48.6379" lon="6.35581">
        <ele>264.6</ele>
        <time>2022-05-20T12:29:55Z</time>
      </trkpt>
      <trkpt lat="48.63789" lon="6.35578">
        <ele>264</ele>
        <time>2022-05-20T12:29:56Z</time>
      </trkpt>
      <trkpt lat="48.63789" lon="6.35575">
        <ele>263.6</ele>
        <time>2022-05-20T12:29:57Z</time>
      </trkpt>
      <trkpt lat="48.63788" lon="6.3557">
        <ele>263</ele>
        <time>2022-05-20T12:30:09Z</time>
      </trkpt>
      <trkpt lat="48.63784" lon="6.35572">
        <ele>262.2</ele>
        <time>2022-05-20T12:31:13Z</time>
      </trkpt>
      <trkpt lat="48.63785" lon="6.35573">
        <ele>262.2</ele>
        <time>2022-05-20T12:31:14Z</time>
      </trkpt>
      <trkpt lat="48.63812" lon="6.35563">
        <ele>265.4</ele>
        <time>2022-05-20T12:31:33Z</time>
      </trkpt>
      <trkpt lat="48.63818" lon="6.35558">
        <ele>266.2</ele>
        <time>2022-05-20T12:31:38Z</time>
      </trkpt>
      <trkpt lat="48.63819" lon="6.35557">
        <ele>266.4</ele>
        <time>2022-05-20T12:31:39Z</time>
      </trkpt>
      <trkpt lat="48.63819" lon="6.35555">
        <ele>266.6</ele>
        <time>2022-05-20T12:31:40Z</time>
      </trkpt>
      <trkpt lat="48.6382" lon="6.35553">
        <ele>266.8</ele>
        <time>2022-05-20T12:31:41Z</time>
      </trkpt>
      <trkpt lat="48.63821" lon="6.35551">
        <ele>267</ele>
        <time>2022-05-20T12:31:42Z</time>
      </trkpt>
      <trkpt lat="48.63821" lon="6.3555">
        <ele>267.4</ele>
        <time>2022-05-20T12:31:43Z</time>
      </trkpt>
      <trkpt lat="48.63822" lon="6.35548">
        <ele>267.6</ele>
        <time>2022-05-20T12:31:44Z</time>
      </trkpt>
      <trkpt lat="48.63823" lon="6.35547">
        <ele>267.8</ele>
        <time>2022-05-20T12:31:45Z</time>
      </trkpt>
      <trkpt lat="48.63824" lon="6.35546">
        <ele>268</ele>
        <time>2022-05-20T12:31:46Z</time>
      </trkpt>
      <trkpt lat="48.63825" lon="6.35545">
        <ele>268.2</ele>
        <time>2022-05-20T12:31:47Z</time>
      </trkpt>
      <trkpt lat="48.63829" lon="6.35542">
        <ele>269</ele>
        <time>2022-05-20T12:31:51Z</time>
      </trkpt>
      <trkpt lat="48.63833" lon="6.35537">
        <ele>270.2</ele>
        <time>2022-05-20T12:31:55Z</time>
      </trkpt>
      <trkpt lat="48.63834" lon="6.35536">
        <ele>270.4</ele>
        <time>2022-05-20T12:31:56Z</time>
      </trkpt>
      <trkpt lat="48.63842" lon="6.3553">
        <ele>272.2</ele>
        <time>2022-05-20T12:32:03Z</time>
      </trkpt>
      <trkpt lat="48.63843" lon="6.35529">
        <ele>272.6</ele>
        <time>2022-05-20T12:32:04Z</time>
      </trkpt>
      <trkpt lat="48.6385" lon="6.35527">
        <ele>274.2</ele>
        <time>2022-05-20T12:32:11Z</time>
      </trkpt>
      <trkpt lat="48.63851" lon="6.35527">
        <ele>274.6</ele>
        <time>2022-05-20T12:32:12Z</time>
      </trkpt>
      <trkpt lat="48.63861" lon="6.3552">
        <ele>278</ele>
        <time>2022-05-20T12:32:22Z</time>
      </trkpt>
      <trkpt lat="48.63866" lon="6.35513">
        <ele>281</ele>
        <time>2022-05-20T12:32:31Z</time>
      </trkpt>
      <trkpt lat="48.63866" lon="6.35512">
        <ele>281.2</ele>
        <time>2022-05-20T12:32:32Z</time>
      </trkpt>
      <trkpt lat="48.63869" lon="6.35508">
        <ele>282.6</ele>
        <time>2022-05-20T12:32:36Z</time>
      </trkpt>
      <trkpt lat="48.63874" lon="6.35505">
        <ele>284.4</ele>
        <time>2022-05-20T12:32:41Z</time>
      </trkpt>
      <trkpt lat="48.63877" lon="6.35505">
        <ele>285.2</ele>
        <time>2022-05-20T12:32:43Z</time>
      </trkpt>
      <trkpt lat="48.63878" lon="6.35504">
        <ele>285.4</ele>
        <time>2022-05-20T12:32:44Z</time>
      </trkpt>
      <trkpt lat="48.63879" lon="6.35502">
        <ele>286</ele>
        <time>2022-05-20T12:32:46Z</time>
      </trkpt>
      <trkpt lat="48.6388" lon="6.355">
        <ele>286.4</ele>
        <time>2022-05-20T12:32:48Z</time>
      </trkpt>
      <trkpt lat="48.63889" lon="6.35498">
        <ele>288.2</ele>
        <time>2022-05-20T12:32:55Z</time>
      </trkpt>
      <trkpt lat="48.6389" lon="6.35497">
        <ele>288.4</ele>
        <time>2022-05-20T12:32:56Z</time>
      </trkpt>
      <trkpt lat="48.63891" lon="6.35496">
        <ele>288.6</ele>
        <time>2022-05-20T12:32:57Z</time>
      </trkpt>
      <trkpt lat="48.63903" lon="6.35487">
        <ele>291.8</ele>
        <time>2022-05-20T12:33:11Z</time>
      </trkpt>
      <trkpt lat="48.6391" lon="6.35487">
        <ele>293.6</ele>
        <time>2022-05-20T12:33:19Z</time>
      </trkpt>
      <trkpt lat="48.63914" lon="6.35488">
        <ele>294</ele>
        <time>2022-05-20T12:33:25Z</time>
      </trkpt>
      <trkpt lat="48.63916" lon="6.35489">
        <ele>294.2</ele>
        <time>2022-05-20T12:33:30Z</time>
      </trkpt>
      <trkpt lat="48.63937" lon="6.35479">
        <ele>305.2</ele>
        <time>2022-05-20T12:35:45Z</time>
      </trkpt>
      <trkpt lat="48.63937" lon="6.35479">
        <ele>305.2</ele>
        <time>2022-05-20T12:35:46Z</time>
      </trkpt>
      <trkpt lat="48.63938" lon="6.35479">
        <ele>305.4</ele>
        <time>2022-05-20T12:35:47Z</time>
      </trkpt>
      <trkpt lat="48.63939" lon="6.35479">
        <ele>305.8</ele>
        <time>2022-05-20T12:35:50Z</time>
      </trkpt>
      <trkpt lat="48.63966" lon="6.35446">
        <ele>309</ele>
        <time>2022-05-20T12:36:53Z</time>
      </trkpt>
      <trkpt lat="48.63965" lon="6.35444">
        <ele>309</ele>
        <time>2022-05-20T12:36:54Z</time>
      </trkpt>
      <trkpt lat="48.63964" lon="6.35441">
        <ele>308.8</ele>
        <time>2022-05-20T12:36:55Z</time>
      </trkpt>
      <trkpt lat="48.63963" lon="6.35439">
        <ele>308.8</ele>
        <time>2022-05-20T12:36:56Z</time>
      </trkpt>
      <trkpt lat="48.63962" lon="6.35436">
        <ele>308.8</ele>
        <time>2022-05-20T12:36:57Z</time>
      </trkpt>
      <trkpt lat="48.63961" lon="6.35433">
        <ele>308.6</ele>
        <time>2022-05-20T12:36:58Z</time>
      </trkpt>
      <trkpt lat="48.6396" lon="6.3543">
        <ele>308.6</ele>
        <time>2022-05-20T12:36:59Z</time>
      </trkpt>
      <trkpt lat="48.63959" lon="6.35427">
        <ele>308.6</ele>
        <time>2022-05-20T12:37:00Z</time>
      </trkpt>
      <trkpt lat="48.63932" lon="6.35352">
        <ele>307.6</ele>
        <time>2022-05-20T12:37:26Z</time>
      </trkpt>
      <trkpt lat="48.63896" lon="6.35262">
        <ele>308.2</ele>
        <time>2022-05-20T12:37:51Z</time>
      </trkpt>
      <trkpt lat="48.6387" lon="6.35205">
        <ele>306.8</ele>
        <time>2022-05-20T12:38:16Z</time>
      </trkpt>
      <trkpt lat="48.63868" lon="6.35192">
        <ele>307.2</ele>
        <time>2022-05-20T12:38:24Z</time>
      </trkpt>
      <trkpt lat="48.63856" lon="6.35187">
        <ele>306</ele>
        <time>2022-05-20T12:38:36Z</time>
      </trkpt>
      <trkpt lat="48.63853" lon="6.35184">
        <ele>305.8</ele>
        <time>2022-05-20T12:38:39Z</time>
      </trkpt>
      <trkpt lat="48.63851" lon="6.35183">
        <ele>305.8</ele>
        <time>2022-05-20T12:38:40Z</time>
      </trkpt>
      <trkpt lat="48.6385" lon="6.35182">
        <ele>305.6</ele>
        <time>2022-05-20T12:38:41Z</time>
      </trkpt>
      <trkpt lat="48.63849" lon="6.35181">
        <ele>305.4</ele>
        <time>2022-05-20T12:38:42Z</time>
      </trkpt>
      <trkpt lat="48.63848" lon="6.3518">
        <ele>305.2</ele>
        <time>2022-05-20T12:38:43Z</time>
      </trkpt>
      <trkpt lat="48.63847" lon="6.35179">
        <ele>305.2</ele>
        <time>2022-05-20T12:38:44Z</time>
      </trkpt>
      <trkpt lat="48.6384" lon="6.35172">
        <ele>304.8</ele>
        <time>2022-05-20T12:38:56Z</time>
      </trkpt>
      <trkpt lat="48.63821" lon="6.35155">
        <ele>301.4</ele>
        <time>2022-05-20T12:43:20Z</time>
      </trkpt>
      <trkpt lat="48.63819" lon="6.35154">
        <ele>301.4</ele>
        <time>2022-05-20T12:43:21Z</time>
      </trkpt>
      <trkpt lat="48.63818" lon="6.35153">
        <ele>301.6</ele>
        <time>2022-05-20T12:43:22Z</time>
      </trkpt>
      <trkpt lat="48.63768" lon="6.35083">
        <ele>302.8</ele>
        <time>2022-05-20T12:43:53Z</time>
      </trkpt>
      <trkpt lat="48.63739" lon="6.35041">
        <ele>302</ele>
        <time>2022-05-20T12:44:11Z</time>
      </trkpt>
      <trkpt lat="48.63738" lon="6.3504">
        <ele>302</ele>
        <time>2022-05-20T12:44:12Z</time>
      </trkpt>
      <trkpt lat="48.63735" lon="6.35037">
        <ele>301.8</ele>
        <time>2022-05-20T12:44:13Z</time>
      </trkpt>
      <trkpt lat="48.63733" lon="6.35036">
        <ele>301.6</ele>
        <time>2022-05-20T12:44:14Z</time>
      </trkpt>
      <trkpt lat="48.63731" lon="6.35034">
        <ele>301.6</ele>
        <time>2022-05-20T12:44:15Z</time>
      </trkpt>
      <trkpt lat="48.6373" lon="6.35032">
        <ele>301.6</ele>
        <time>2022-05-20T12:44:16Z</time>
      </trkpt>
      <trkpt lat="48.63729" lon="6.35031">
        <ele>301.6</ele>
        <time>2022-05-20T12:44:17Z</time>
      </trkpt>
      <trkpt lat="48.63724" lon="6.35028">
        <ele>301.6</ele>
        <time>2022-05-20T12:44:28Z</time>
      </trkpt>
      <trkpt lat="48.63703" lon="6.35001">
        <ele>301.8</ele>
        <time>2022-05-20T12:45:55Z</time>
      </trkpt>
      <trkpt lat="48.63701" lon="6.35">
        <ele>301.8</ele>
        <time>2022-05-20T12:45:56Z</time>
      </trkpt>
      <trkpt lat="48.63701" lon="6.34999">
        <ele>301.8</ele>
        <time>2022-05-20T12:45:57Z</time>
      </trkpt>
      <trkpt lat="48.63699" lon="6.34998">
        <ele>301.8</ele>
        <time>2022-05-20T12:45:58Z</time>
      </trkpt>
      <trkpt lat="48.63697" lon="6.34997">
        <ele>301.6</ele>
        <time>2022-05-20T12:45:59Z</time>
      </trkpt>
      <trkpt lat="48.63695" lon="6.34995">
        <ele>301.6</ele>
        <time>2022-05-20T12:46:00Z</time>
      </trkpt>
      <trkpt lat="48.63693" lon="6.34995">
        <ele>301.4</ele>
        <time>2022-05-20T12:46:01Z</time>
      </trkpt>
      <trkpt lat="48.6369" lon="6.34994">
        <ele>301.2</ele>
        <time>2022-05-20T12:46:02Z</time>
      </trkpt>
      <trkpt lat="48.63625" lon="6.34995">
        <ele>300</ele>
        <time>2022-05-20T12:46:44Z</time>
      </trkpt>
      <trkpt lat="48.63573" lon="6.3494">
        <ele>300.4</ele>
        <time>2022-05-20T12:47:06Z</time>
      </trkpt>
      <trkpt lat="48.63523" lon="6.34874">
        <ele>301</ele>
        <time>2022-05-20T12:47:27Z</time>
      </trkpt>
      <trkpt lat="48.63511" lon="6.34879">
        <ele>300.2</ele>
        <time>2022-05-20T12:47:31Z</time>
      </trkpt>
      <trkpt lat="48.63507" lon="6.34883">
        <ele>299.8</ele>
        <time>2022-05-20T12:47:32Z</time>
      </trkpt>
      <trkpt lat="48.63472" lon="6.34915">
        <ele>296.2</ele>
        <time>2022-05-20T12:47:38Z</time>
      </trkpt>
      <trkpt lat="48.63464" lon="6.34918">
        <ele>295.4</ele>
        <time>2022-05-20T12:47:39Z</time>
      </trkpt>
      <trkpt lat="48.63444" lon="6.34933">
        <ele>292.4</ele>
        <time>2022-05-20T12:47:42Z</time>
      </trkpt>
      <trkpt lat="48.63423" lon="6.34947">
        <ele>289</ele>
        <time>2022-05-20T12:47:45Z</time>
      </trkpt>
      <trkpt lat="48.63415" lon="6.3495">
        <ele>287.8</ele>
        <time>2022-05-20T12:47:46Z</time>
      </trkpt>
      <trkpt lat="48.63406" lon="6.34953">
        <ele>286</ele>
        <time>2022-05-20T12:47:47Z</time>
      </trkpt>
      <trkpt lat="48.63392" lon="6.34959">
        <ele>283.4</ele>
        <time>2022-05-20T12:47:49Z</time>
      </trkpt>
      <trkpt lat="48.63371" lon="6.3497">
        <ele>280.4</ele>
        <time>2022-05-20T12:47:52Z</time>
      </trkpt>
      <trkpt lat="48.63362" lon="6.34974">
        <ele>278.6</ele>
        <time>2022-05-20T12:47:54Z</time>
      </trkpt>
      <trkpt lat="48.63357" lon="6.34974">
        <ele>277.8</ele>
        <time>2022-05-20T12:47:55Z</time>
      </trkpt>
      <trkpt lat="48.63352" lon="6.34972">
        <ele>277.2</ele>
        <time>2022-05-20T12:47:56Z</time>
      </trkpt>
      <trkpt lat="48.63322" lon="6.3496">
        <ele>274.2</ele>
        <time>2022-05-20T12:48:01Z</time>
      </trkpt>
      <trkpt lat="48.63316" lon="6.3496">
        <ele>272.6</ele>
        <time>2022-05-20T12:48:02Z</time>
      </trkpt>
      <trkpt lat="48.6331" lon="6.34958">
        <ele>271.4</ele>
        <time>2022-05-20T12:48:03Z</time>
      </trkpt>
      <trkpt lat="48.63304" lon="6.34955">
        <ele>270.2</ele>
        <time>2022-05-20T12:48:04Z</time>
      </trkpt>
      <trkpt lat="48.63292" lon="6.34949">
        <ele>267.6</ele>
        <time>2022-05-20T12:48:06Z</time>
      </trkpt>
      <trkpt lat="48.63287" lon="6.34945">
        <ele>266.8</ele>
        <time>2022-05-20T12:48:07Z</time>
      </trkpt>
      <trkpt lat="48.63284" lon="6.34941">
        <ele>265.4</ele>
        <time>2022-05-20T12:48:08Z</time>
      </trkpt>
      <trkpt lat="48.63281" lon="6.34937">
        <ele>264.8</ele>
        <time>2022-05-20T12:48:09Z</time>
      </trkpt>
      <trkpt lat="48.63279" lon="6.34931">
        <ele>264.2</ele>
        <time>2022-05-20T12:48:10Z</time>
      </trkpt>
      <trkpt lat="48.63277" lon="6.34924">
        <ele>264</ele>
        <time>2022-05-20T12:48:11Z</time>
      </trkpt>
      <trkpt lat="48.63276" lon="6.34918">
        <ele>263.8</ele>
        <time>2022-05-20T12:48:12Z</time>
      </trkpt>
      <trkpt lat="48.63256" lon="6.34833">
        <ele>262.6</ele>
        <time>2022-05-20T12:48:29Z</time>
      </trkpt>
      <trkpt lat="48.63255" lon="6.34827">
        <ele>262.4</ele>
        <time>2022-05-20T12:48:30Z</time>
      </trkpt>
      <trkpt lat="48.63252" lon="6.34804">
        <ele>261.8</ele>
        <time>2022-05-20T12:48:33Z</time>
      </trkpt>
      <trkpt lat="48.6325" lon="6.34795">
        <ele>261.6</ele>
        <time>2022-05-20T12:48:34Z</time>
      </trkpt>
      <trkpt lat="48.63235" lon="6.3474">
        <ele>260.4</ele>
        <time>2022-05-20T12:48:42Z</time>
      </trkpt>
      <trkpt lat="48.6323" lon="6.34723">
        <ele>260</ele>
        <time>2022-05-20T12:48:45Z</time>
      </trkpt>
      <trkpt lat="48.63228" lon="6.34717">
        <ele>259.8</ele>
        <time>2022-05-20T12:48:46Z</time>
      </trkpt>
      <trkpt lat="48.63226" lon="6.3471">
        <ele>259.6</ele>
        <time>2022-05-20T12:48:47Z</time>
      </trkpt>
      <trkpt lat="48.63224" lon="6.34703">
        <ele>259.4</ele>
        <time>2022-05-20T12:48:48Z</time>
      </trkpt>
      <trkpt lat="48.63221" lon="6.34695">
        <ele>259.4</ele>
        <time>2022-05-20T12:48:49Z</time>
      </trkpt>
      <trkpt lat="48.63217" lon="6.34687">
        <ele>259.2</ele>
        <time>2022-05-20T12:48:50Z</time>
      </trkpt>
      <trkpt lat="48.63215" lon="6.34679">
        <ele>259.2</ele>
        <time>2022-05-20T12:48:51Z</time>
      </trkpt>
      <trkpt lat="48.63212" lon="6.34671">
        <ele>259.2</ele>
        <time>2022-05-20T12:48:52Z</time>
      </trkpt>
      <trkpt lat="48.63204" lon="6.34642">
        <ele>259.2</ele>
        <time>2022-05-20T12:48:56Z</time>
      </trkpt>
      <trkpt lat="48.63202" lon="6.34635">
        <ele>259</ele>
        <time>2022-05-20T12:48:57Z</time>
      </trkpt>
      <trkpt lat="48.63193" lon="6.34586">
        <ele>258.6</ele>
        <time>2022-05-20T12:49:04Z</time>
      </trkpt>
      <trkpt lat="48.63184" lon="6.34513">
        <ele>256.6</ele>
        <time>2022-05-20T12:49:23Z</time>
      </trkpt>
      <trkpt lat="48.63177" lon="6.34514">
        <ele>255.6</ele>
        <time>2022-05-20T12:49:47Z</time>
      </trkpt>
      <trkpt lat="48.63174" lon="6.34516">
        <ele>255.6</ele>
        <time>2022-05-20T12:49:48Z</time>
      </trkpt>
      <trkpt lat="48.63166" lon="6.34521">
        <ele>254.2</ele>
        <time>2022-05-20T12:49:50Z</time>
      </trkpt>
      <trkpt lat="48.63144" lon="6.34528">
        <ele>250.6</ele>
        <time>2022-05-20T12:49:53Z</time>
      </trkpt>
      <trkpt lat="48.63129" lon="6.34535">
        <ele>247</ele>
        <time>2022-05-20T12:49:55Z</time>
      </trkpt>
      <trkpt lat="48.63114" lon="6.34542">
        <ele>243.8</ele>
        <time>2022-05-20T12:49:57Z</time>
      </trkpt>
      <trkpt lat="48.63092" lon="6.34552">
        <ele>238.8</ele>
        <time>2022-05-20T12:50:00Z</time>
      </trkpt>
      <trkpt lat="48.63078" lon="6.34561">
        <ele>235.2</ele>
        <time>2022-05-20T12:50:02Z</time>
      </trkpt>
      <trkpt lat="48.63058" lon="6.34571">
        <ele>230.6</ele>
        <time>2022-05-20T12:50:05Z</time>
      </trkpt>
      <trkpt lat="48.63043" lon="6.34579">
        <ele>226.8</ele>
        <time>2022-05-20T12:50:08Z</time>
      </trkpt>
      <trkpt lat="48.63036" lon="6.34585">
        <ele>224.8</ele>
        <time>2022-05-20T12:50:10Z</time>
      </trkpt>
      <trkpt lat="48.63025" lon="6.34596">
        <ele>221.6</ele>
        <time>2022-05-20T12:50:14Z</time>
      </trkpt>
      <trkpt lat="48.63019" lon="6.34601">
        <ele>220.2</ele>
        <time>2022-05-20T12:50:17Z</time>
      </trkpt>
      <trkpt lat="48.62998" lon="6.34617">
        <ele>217.8</ele>
        <time>2022-05-20T12:50:27Z</time>
      </trkpt>
      <trkpt lat="48.62993" lon="6.3462">
        <ele>217.4</ele>
        <time>2022-05-20T12:50:28Z</time>
      </trkpt>
      <trkpt lat="48.62988" lon="6.34623">
        <ele>217</ele>
        <time>2022-05-20T12:50:29Z</time>
      </trkpt>
      <trkpt lat="48.62983" lon="6.34627">
        <ele>216.6</ele>
        <time>2022-05-20T12:50:30Z</time>
      </trkpt>
      <trkpt lat="48.62978" lon="6.34631">
        <ele>216</ele>
        <time>2022-05-20T12:50:31Z</time>
      </trkpt>
      <trkpt lat="48.62958" lon="6.34647">
        <ele>213</ele>
        <time>2022-05-20T12:50:40Z</time>
      </trkpt>
      <trkpt lat="48.62957" lon="6.34646">
        <ele>213</ele>
        <time>2022-05-20T12:50:41Z</time>
      </trkpt>
      <trkpt lat="48.62954" lon="6.34646">
        <ele>213</ele>
        <time>2022-05-20T12:50:44Z</time>
      </trkpt>
      <trkpt lat="48.62953" lon="6.34647">
        <ele>212.8</ele>
        <time>2022-05-20T12:50:45Z</time>
      </trkpt>
      <trkpt lat="48.62952" lon="6.3465">
        <ele>212.6</ele>
        <time>2022-05-20T12:50:46Z</time>
      </trkpt>
      <trkpt lat="48.62952" lon="6.34654">
        <ele>212.6</ele>
        <time>2022-05-20T12:50:47Z</time>
      </trkpt>
      <trkpt lat="48.62952" lon="6.34659">
        <ele>212.6</ele>
        <time>2022-05-20T12:50:48Z</time>
      </trkpt>
      <trkpt lat="48.62952" lon="6.34678">
        <ele>213.2</ele>
        <time>2022-05-20T12:50:54Z</time>
      </trkpt>
      <trkpt lat="48.62951" lon="6.3468">
        <ele>213.4</ele>
        <time>2022-05-20T12:50:55Z</time>
      </trkpt>
      <trkpt lat="48.62949" lon="6.34682">
        <ele>213.4</ele>
        <time>2022-05-20T12:50:56Z</time>
      </trkpt>
      <trkpt lat="48.62947" lon="6.34684">
        <ele>213.6</ele>
        <time>2022-05-20T12:50:57Z</time>
      </trkpt>
      <trkpt lat="48.62945" lon="6.34685">
        <ele>213.8</ele>
        <time>2022-05-20T12:50:58Z</time>
      </trkpt>
      <trkpt lat="48.62943" lon="6.34686">
        <ele>213.8</ele>
        <time>2022-05-20T12:50:59Z</time>
      </trkpt>
      <trkpt lat="48.62913" lon="6.34713">
        <ele>213.8</ele>
        <time>2022-05-20T12:51:14Z</time>
      </trkpt>
      <trkpt lat="48.62913" lon="6.34718">
        <ele>213.6</ele>
        <time>2022-05-20T12:51:15Z</time>
      </trkpt>
      <trkpt lat="48.62915" lon="6.34722">
        <ele>213.4</ele>
        <time>2022-05-20T12:51:16Z</time>
      </trkpt>
      <trkpt lat="48.62941" lon="6.34769">
        <ele>210.8</ele>
        <time>2022-05-20T12:51:23Z</time>
      </trkpt>
      <trkpt lat="48.62943" lon="6.34778">
        <ele>210.4</ele>
        <time>2022-05-20T12:51:24Z</time>
      </trkpt>
      <trkpt lat="48.62966" lon="6.34863">
        <ele>209.2</ele>
        <time>2022-05-20T12:51:34Z</time>
      </trkpt>
      <trkpt lat="48.62984" lon="6.34947">
        <ele>209</ele>
        <time>2022-05-20T12:51:46Z</time>
      </trkpt>
      <trkpt lat="48.62992" lon="6.34996">
        <ele>209.2</ele>
        <time>2022-05-20T12:51:53Z</time>
      </trkpt>
      <trkpt lat="48.62994" lon="6.3501">
        <ele>209</ele>
        <time>2022-05-20T12:51:55Z</time>
      </trkpt>
      <trkpt lat="48.62998" lon="6.35069">
        <ele>209.2</ele>
        <time>2022-05-20T12:52:03Z</time>
      </trkpt>
      <trkpt lat="48.63002" lon="6.35156">
        <ele>208.6</ele>
        <time>2022-05-20T12:52:17Z</time>
      </trkpt>
      <trkpt lat="48.63006" lon="6.35248">
        <ele>209</ele>
        <time>2022-05-20T12:52:31Z</time>
      </trkpt>
      <trkpt lat="48.63007" lon="6.35268">
        <ele>209.2</ele>
        <time>2022-05-20T12:52:34Z</time>
      </trkpt>
      <trkpt lat="48.63012" lon="6.3536">
        <ele>210.4</ele>
        <time>2022-05-20T12:52:49Z</time>
      </trkpt>
      <trkpt lat="48.63026" lon="6.35442">
        <ele>212.8</ele>
        <time>2022-05-20T12:53:08Z</time>
      </trkpt>
      <trkpt lat="48.63026" lon="6.3553">
        <ele>213</ele>
        <time>2022-05-20T12:53:23Z</time>
      </trkpt>
      <trkpt lat="48.63029" lon="6.35619">
        <ele>213</ele>
        <time>2022-05-20T12:53:36Z</time>
      </trkpt>
      <trkpt lat="48.63027" lon="6.35707">
        <ele>213</ele>
        <time>2022-05-20T12:53:48Z</time>
      </trkpt>
      <trkpt lat="48.63029" lon="6.35799">
        <ele>213.2</ele>
        <time>2022-05-20T12:54:01Z</time>
      </trkpt>
      <trkpt lat="48.63031" lon="6.35821">
        <ele>213.4</ele>
        <time>2022-05-20T12:54:04Z</time>
      </trkpt>
      <trkpt lat="48.63032" lon="6.35828">
        <ele>213.4</ele>
        <time>2022-05-20T12:54:05Z</time>
      </trkpt>
      <trkpt lat="48.63037" lon="6.35874">
        <ele>213.2</ele>
        <time>2022-05-20T12:54:11Z</time>
      </trkpt>
      <trkpt lat="48.63042" lon="6.35904">
        <ele>213.2</ele>
        <time>2022-05-20T12:54:15Z</time>
      </trkpt>
      <trkpt lat="48.63062" lon="6.35986">
        <ele>213.2</ele>
        <time>2022-05-20T12:54:26Z</time>
      </trkpt>
      <trkpt lat="48.63085" lon="6.36066">
        <ele>213.4</ele>
        <time>2022-05-20T12:54:38Z</time>
      </trkpt>
      <trkpt lat="48.63095" lon="6.361">
        <ele>213.4</ele>
        <time>2022-05-20T12:54:43Z</time>
      </trkpt>
      <trkpt lat="48.63097" lon="6.36107">
        <ele>213.4</ele>
        <time>2022-05-20T12:54:44Z</time>
      </trkpt>
      <trkpt lat="48.6311" lon="6.36154">
        <ele>213.4</ele>
        <time>2022-05-20T12:54:51Z</time>
      </trkpt>
      <trkpt lat="48.63114" lon="6.36168">
        <ele>213.4</ele>
        <time>2022-05-20T12:54:53Z</time>
      </trkpt>
      <trkpt lat="48.63138" lon="6.36257">
        <ele>213.4</ele>
        <time>2022-05-20T12:55:05Z</time>
      </trkpt>
      <trkpt lat="48.63164" lon="6.36342">
        <ele>213.2</ele>
        <time>2022-05-20T12:55:16Z</time>
      </trkpt>
      <trkpt lat="48.63191" lon="6.36429">
        <ele>213.4</ele>
        <time>2022-05-20T12:55:27Z</time>
      </trkpt>
      <trkpt lat="48.63214" lon="6.36512">
        <ele>213.2</ele>
        <time>2022-05-20T12:55:37Z</time>
      </trkpt>
      <trkpt lat="48.63236" lon="6.3659">
        <ele>213.2</ele>
        <time>2022-05-20T12:55:47Z</time>
      </trkpt>
      <trkpt lat="48.63262" lon="6.36676">
        <ele>213.2</ele>
        <time>2022-05-20T12:55:58Z</time>
      </trkpt>
      <trkpt lat="48.63292" lon="6.36756">
        <ele>213.2</ele>
        <time>2022-05-20T12:56:09Z</time>
      </trkpt>
      <trkpt lat="48.63325" lon="6.36838">
        <ele>213.2</ele>
        <time>2022-05-20T12:56:21Z</time>
      </trkpt>
      <trkpt lat="48.63361" lon="6.36912">
        <ele>213</ele>
        <time>2022-05-20T12:56:32Z</time>
      </trkpt>
      <trkpt lat="48.63363" lon="6.36918">
        <ele>213</ele>
        <time>2022-05-20T12:56:33Z</time>
      </trkpt>
      <trkpt lat="48.6337" lon="6.36959">
        <ele>212.8</ele>
        <time>2022-05-20T12:56:39Z</time>
      </trkpt>
      <trkpt lat="48.63372" lon="6.36965">
        <ele>212.8</ele>
        <time>2022-05-20T12:56:40Z</time>
      </trkpt>
      <trkpt lat="48.63406" lon="6.37037">
        <ele>213</ele>
        <time>2022-05-20T12:56:52Z</time>
      </trkpt>
      <trkpt lat="48.6341" lon="6.37041">
        <ele>213</ele>
        <time>2022-05-20T12:56:53Z</time>
      </trkpt>
      <trkpt lat="48.63414" lon="6.37045">
        <ele>213</ele>
        <time>2022-05-20T12:56:54Z</time>
      </trkpt>
      <trkpt lat="48.63431" lon="6.3707">
        <ele>212.6</ele>
        <time>2022-05-20T12:57:01Z</time>
      </trkpt>
      <trkpt lat="48.6343" lon="6.37072">
        <ele>212.4</ele>
        <time>2022-05-20T12:57:02Z</time>
      </trkpt>
      <trkpt lat="48.63428" lon="6.37074">
        <ele>212</ele>
        <time>2022-05-20T12:57:03Z</time>
      </trkpt>
      <trkpt lat="48.63426" lon="6.37076">
        <ele>212</ele>
        <time>2022-05-20T12:57:04Z</time>
      </trkpt>
      <trkpt lat="48.63423" lon="6.37075">
        <ele>211.8</ele>
        <time>2022-05-20T12:57:05Z</time>
      </trkpt>
      <trkpt lat="48.63421" lon="6.37073">
        <ele>211.8</ele>
        <time>2022-05-20T12:57:06Z</time>
      </trkpt>
      <trkpt lat="48.63419" lon="6.37071">
        <ele>211.8</ele>
        <time>2022-05-20T12:57:07Z</time>
      </trkpt>
      <trkpt lat="48.63374" lon="6.37014">
        <ele>211.4</ele>
        <time>2022-05-20T12:57:24Z</time>
      </trkpt>
      <trkpt lat="48.63352" lon="6.37001">
        <ele>211.2</ele>
        <time>2022-05-20T12:57:30Z</time>
      </trkpt>
      <trkpt lat="48.63347" lon="6.37">
        <ele>211.2</ele>
        <time>2022-05-20T12:57:31Z</time>
      </trkpt>
      <trkpt lat="48.63293" lon="6.36997">
        <ele>210.2</ele>
        <time>2022-05-20T12:57:42Z</time>
      </trkpt>
      <trkpt lat="48.6328" lon="6.36999">
        <ele>210</ele>
        <time>2022-05-20T12:57:45Z</time>
      </trkpt>
      <trkpt lat="48.63266" lon="6.36999">
        <ele>209.8</ele>
        <time>2022-05-20T12:57:48Z</time>
      </trkpt>
      <trkpt lat="48.63262" lon="6.37">
        <ele>209.8</ele>
        <time>2022-05-20T12:57:49Z</time>
      </trkpt>
      <trkpt lat="48.63258" lon="6.37002">
        <ele>209.8</ele>
        <time>2022-05-20T12:57:50Z</time>
      </trkpt>
      <trkpt lat="48.63254" lon="6.37005">
        <ele>209.8</ele>
        <time>2022-05-20T12:57:51Z</time>
      </trkpt>
      <trkpt lat="48.6325" lon="6.37008">
        <ele>210</ele>
        <time>2022-05-20T12:57:52Z</time>
      </trkpt>
      <trkpt lat="48.63246" lon="6.37011">
        <ele>210</ele>
        <time>2022-05-20T12:57:53Z</time>
      </trkpt>
      <trkpt lat="48.63208" lon="6.37044">
        <ele>209.4</ele>
        <time>2022-05-20T12:58:03Z</time>
      </trkpt>
      <trkpt lat="48.63204" lon="6.37047">
        <ele>209.4</ele>
        <time>2022-05-20T12:58:04Z</time>
      </trkpt>
      <trkpt lat="48.63149" lon="6.37077">
        <ele>209.8</ele>
        <time>2022-05-20T12:58:19Z</time>
      </trkpt>
      <trkpt lat="48.63122" lon="6.37086">
        <ele>210.4</ele>
        <time>2022-05-20T12:58:29Z</time>
      </trkpt>
      <trkpt lat="48.63121" lon="6.37083">
        <ele>210.6</ele>
        <time>2022-05-20T12:58:30Z</time>
      </trkpt>
      <trkpt lat="48.6312" lon="6.37079">
        <ele>210.6</ele>
        <time>2022-05-20T12:58:31Z</time>
      </trkpt>
      <trkpt lat="48.63118" lon="6.37074">
        <ele>210.6</ele>
        <time>2022-05-20T12:58:32Z</time>
      </trkpt>
      <trkpt lat="48.63116" lon="6.37069">
        <ele>210.6</ele>
        <time>2022-05-20T12:58:33Z</time>
      </trkpt>
      <trkpt lat="48.63094" lon="6.37005">
        <ele>210.6</ele>
        <time>2022-05-20T12:58:44Z</time>
      </trkpt>
      <trkpt lat="48.6309" lon="6.36993">
        <ele>210.2</ele>
        <time>2022-05-20T12:58:46Z</time>
      </trkpt>
      <trkpt lat="48.63087" lon="6.36989">
        <ele>210.2</ele>
        <time>2022-05-20T12:58:47Z</time>
      </trkpt>
      <trkpt lat="48.63082" lon="6.36986">
        <ele>210</ele>
        <time>2022-05-20T12:58:48Z</time>
      </trkpt>
      <trkpt lat="48.63078" lon="6.36987">
        <ele>210</ele>
        <time>2022-05-20T12:58:49Z</time>
      </trkpt>
      <trkpt lat="48.63074" lon="6.36989">
        <ele>210</ele>
        <time>2022-05-20T12:58:50Z</time>
      </trkpt>
      <trkpt lat="48.63069" lon="6.36991">
        <ele>210.2</ele>
        <time>2022-05-20T12:58:51Z</time>
      </trkpt>
      <trkpt lat="48.63028" lon="6.37008">
        <ele>210.8</ele>
        <time>2022-05-20T12:59:04Z</time>
      </trkpt>
      <trkpt lat="48.63026" lon="6.37006">
        <ele>210.8</ele>
        <time>2022-05-20T12:59:05Z</time>
      </trkpt>
      <trkpt lat="48.63024" lon="6.37003">
        <ele>210.8</ele>
        <time>2022-05-20T12:59:06Z</time>
      </trkpt>
      <trkpt lat="48.63023" lon="6.36999">
        <ele>210.8</ele>
        <time>2022-05-20T12:59:07Z</time>
      </trkpt>
      <trkpt lat="48.63023" lon="6.36995">
        <ele>210.6</ele>
        <time>2022-05-20T12:59:08Z</time>
      </trkpt>
      <trkpt lat="48.63009" lon="6.36957">
        <ele>209.8</ele>
        <time>2022-05-20T12:59:19Z</time>
      </trkpt>
      <trkpt lat="48.63008" lon="6.36953">
        <ele>209.6</ele>
        <time>2022-05-20T12:59:20Z</time>
      </trkpt>
      <trkpt lat="48.63008" lon="6.36948">
        <ele>209.4</ele>
        <time>2022-05-20T12:59:21Z</time>
      </trkpt>
      <trkpt lat="48.63006" lon="6.36943">
        <ele>209.2</ele>
        <time>2022-05-20T12:59:22Z</time>
      </trkpt>
      <trkpt lat="48.63005" lon="6.36937">
        <ele>209</ele>
        <time>2022-05-20T12:59:23Z</time>
      </trkpt>
      <trkpt lat="48.62998" lon="6.36912">
        <ele>208.4</ele>
        <time>2022-05-20T12:59:27Z</time>
      </trkpt>
      <trkpt lat="48.62995" lon="6.369">
        <ele>208</ele>
        <time>2022-05-20T12:59:29Z</time>
      </trkpt>
      <trkpt lat="48.62991" lon="6.36881">
        <ele>207.6</ele>
        <time>2022-05-20T12:59:33Z</time>
      </trkpt>
      <trkpt lat="48.62989" lon="6.36878">
        <ele>207.4</ele>
        <time>2022-05-20T12:59:34Z</time>
      </trkpt>
      <trkpt lat="48.62985" lon="6.36875">
        <ele>207.2</ele>
        <time>2022-05-20T12:59:35Z</time>
      </trkpt>
      <trkpt lat="48.62981" lon="6.36874">
        <ele>207.2</ele>
        <time>2022-05-20T12:59:36Z</time>
      </trkpt>
      <trkpt lat="48.62978" lon="6.36873">
        <ele>207.2</ele>
        <time>2022-05-20T12:59:37Z</time>
      </trkpt>
      <trkpt lat="48.62969" lon="6.36873">
        <ele>207</ele>
        <time>2022-05-20T12:59:39Z</time>
      </trkpt>
      <trkpt lat="48.62944" lon="6.36884">
        <ele>206.6</ele>
        <time>2022-05-20T12:59:46Z</time>
      </trkpt>
      <trkpt lat="48.62939" lon="6.36884">
        <ele>206.4</ele>
        <time>2022-05-20T12:59:47Z</time>
      </trkpt>
      <trkpt lat="48.62887" lon="6.36886">
        <ele>205.6</ele>
        <time>2022-05-20T12:59:58Z</time>
      </trkpt>
      <trkpt lat="48.62882" lon="6.36885">
        <ele>205.6</ele>
        <time>2022-05-20T12:59:59Z</time>
      </trkpt>
      <trkpt lat="48.62878" lon="6.36883">
        <ele>205.8</ele>
        <time>2022-05-20T13:00:00Z</time>
      </trkpt>
      <trkpt lat="48.62852" lon="6.36807">
        <ele>206.4</ele>
        <time>2022-05-20T13:00:14Z</time>
      </trkpt>
      <trkpt lat="48.62838" lon="6.36753">
        <ele>206.2</ele>
        <time>2022-05-20T13:00:22Z</time>
      </trkpt>
      <trkpt lat="48.62827" lon="6.367">
        <ele>206</ele>
        <time>2022-05-20T13:00:29Z</time>
      </trkpt>
      <trkpt lat="48.62822" lon="6.36688">
        <ele>205.8</ele>
        <time>2022-05-20T13:00:31Z</time>
      </trkpt>
      <trkpt lat="48.62818" lon="6.36682">
        <ele>206</ele>
        <time>2022-05-20T13:00:32Z</time>
      </trkpt>
      <trkpt lat="48.62815" lon="6.36678">
        <ele>206</ele>
        <time>2022-05-20T13:00:33Z</time>
      </trkpt>
      <trkpt lat="48.6281" lon="6.36675">
        <ele>206.2</ele>
        <time>2022-05-20T13:00:34Z</time>
      </trkpt>
      <trkpt lat="48.62805" lon="6.36675">
        <ele>206.4</ele>
        <time>2022-05-20T13:00:35Z</time>
      </trkpt>
      <trkpt lat="48.62802" lon="6.36675">
        <ele>206.4</ele>
        <time>2022-05-20T13:00:36Z</time>
      </trkpt>
      <trkpt lat="48.62798" lon="6.36675">
        <ele>206.6</ele>
        <time>2022-05-20T13:00:37Z</time>
      </trkpt>
      <trkpt lat="48.62794" lon="6.36674">
        <ele>206.8</ele>
        <time>2022-05-20T13:00:38Z</time>
      </trkpt>
      <trkpt lat="48.62791" lon="6.36672">
        <ele>206.8</ele>
        <time>2022-05-20T13:00:39Z</time>
      </trkpt>
      <trkpt lat="48.62788" lon="6.36668">
        <ele>206.8</ele>
        <time>2022-05-20T13:00:40Z</time>
      </trkpt>
      <trkpt lat="48.62787" lon="6.36663">
        <ele>207</ele>
        <time>2022-05-20T13:00:41Z</time>
      </trkpt>
      <trkpt lat="48.62787" lon="6.36658">
        <ele>207</ele>
        <time>2022-05-20T13:00:42Z</time>
      </trkpt>
      <trkpt lat="48.62787" lon="6.36653">
        <ele>207</ele>
        <time>2022-05-20T13:00:43Z</time>
      </trkpt>
      <trkpt lat="48.62788" lon="6.36647">
        <ele>207</ele>
        <time>2022-05-20T13:00:44Z</time>
      </trkpt>
      <trkpt lat="48.62789" lon="6.36642">
        <ele>207</ele>
        <time>2022-05-20T13:00:45Z</time>
      </trkpt>
      <trkpt lat="48.62793" lon="6.36605">
        <ele>207</ele>
        <time>2022-05-20T13:00:51Z</time>
      </trkpt>
      <trkpt lat="48.62794" lon="6.36598">
        <ele>206.8</ele>
        <time>2022-05-20T13:00:52Z</time>
      </trkpt>
      <trkpt lat="48.62794" lon="6.36592">
        <ele>206.8</ele>
        <time>2022-05-20T13:00:53Z</time>
      </trkpt>
      <trkpt lat="48.62795" lon="6.36587">
        <ele>207</ele>
        <time>2022-05-20T13:00:54Z</time>
      </trkpt>
      <trkpt lat="48.62796" lon="6.36581">
        <ele>207</ele>
        <time>2022-05-20T13:00:55Z</time>
      </trkpt>
      <trkpt lat="48.62797" lon="6.36575">
        <ele>207</ele>
        <time>2022-05-20T13:00:56Z</time>
      </trkpt>
      <trkpt lat="48.62803" lon="6.36527">
        <ele>206.8</ele>
        <time>2022-05-20T13:01:03Z</time>
      </trkpt>
      <trkpt lat="48.62803" lon="6.3652">
        <ele>206.8</ele>
        <time>2022-05-20T13:01:04Z</time>
      </trkpt>
      <trkpt lat="48.62807" lon="6.36453">
        <ele>206.4</ele>
        <time>2022-05-20T13:01:14Z</time>
      </trkpt>
      <trkpt lat="48.6281" lon="6.36448">
        <ele>206.4</ele>
        <time>2022-05-20T13:01:15Z</time>
      </trkpt>
      <trkpt lat="48.62811" lon="6.36441">
        <ele>206.4</ele>
        <time>2022-05-20T13:01:16Z</time>
      </trkpt>
      <trkpt lat="48.62833" lon="6.36355">
        <ele>207</ele>
        <time>2022-05-20T13:01:32Z</time>
      </trkpt>
      <trkpt lat="48.62833" lon="6.36347">
        <ele>206.8</ele>
        <time>2022-05-20T13:01:33Z</time>
      </trkpt>
      <trkpt lat="48.62833" lon="6.36341">
        <ele>206.6</ele>
        <time>2022-05-20T13:01:34Z</time>
      </trkpt>
      <trkpt lat="48.62833" lon="6.36336">
        <ele>206.6</ele>
        <time>2022-05-20T13:01:35Z</time>
      </trkpt>
      <trkpt lat="48.62831" lon="6.36329">
        <ele>206.4</ele>
        <time>2022-05-20T13:01:36Z</time>
      </trkpt>
      <trkpt lat="48.62827" lon="6.36308">
        <ele>206.4</ele>
        <time>2022-05-20T13:01:39Z</time>
      </trkpt>
      <trkpt lat="48.62826" lon="6.36302">
        <ele>206.4</ele>
        <time>2022-05-20T13:01:40Z</time>
      </trkpt>
      <trkpt lat="48.62803" lon="6.36235">
        <ele>206.2</ele>
        <time>2022-05-20T13:01:52Z</time>
      </trkpt>
      <trkpt lat="48.62803" lon="6.36227">
        <ele>205.8</ele>
        <time>2022-05-20T13:01:53Z</time>
      </trkpt>
      <trkpt lat="48.62803" lon="6.36219">
        <ele>205.6</ele>
        <time>2022-05-20T13:01:54Z</time>
      </trkpt>
      <trkpt lat="48.62802" lon="6.3621">
        <ele>205.2</ele>
        <time>2022-05-20T13:01:55Z</time>
      </trkpt>
      <trkpt lat="48.62801" lon="6.36202">
        <ele>205</ele>
        <time>2022-05-20T13:01:56Z</time>
      </trkpt>
      <trkpt lat="48.62799" lon="6.36195">
        <ele>204.8</ele>
        <time>2022-05-20T13:01:57Z</time>
      </trkpt>
      <trkpt lat="48.628" lon="6.36186">
        <ele>204.8</ele>
        <time>2022-05-20T13:01:58Z</time>
      </trkpt>
      <trkpt lat="48.62798" lon="6.3618">
        <ele>204.8</ele>
        <time>2022-05-20T13:01:59Z</time>
      </trkpt>
      <trkpt lat="48.62795" lon="6.36173">
        <ele>204.8</ele>
        <time>2022-05-20T13:02:00Z</time>
      </trkpt>
      <trkpt lat="48.62792" lon="6.36167">
        <ele>204.8</ele>
        <time>2022-05-20T13:02:01Z</time>
      </trkpt>
      <trkpt lat="48.62791" lon="6.36161">
        <ele>205</ele>
        <time>2022-05-20T13:02:02Z</time>
      </trkpt>
      <trkpt lat="48.6279" lon="6.36154">
        <ele>205</ele>
        <time>2022-05-20T13:02:03Z</time>
      </trkpt>
      <trkpt lat="48.62788" lon="6.36141">
        <ele>205.4</ele>
        <time>2022-05-20T13:02:04Z</time>
      </trkpt>
      <trkpt lat="48.62778" lon="6.36081">
        <ele>206.2</ele>
        <time>2022-05-20T13:02:15Z</time>
      </trkpt>
      <trkpt lat="48.62775" lon="6.36077">
        <ele>206.2</ele>
        <time>2022-05-20T13:02:16Z</time>
      </trkpt>
      <trkpt lat="48.62772" lon="6.36072">
        <ele>206.2</ele>
        <time>2022-05-20T13:02:17Z</time>
      </trkpt>
      <trkpt lat="48.6277" lon="6.36068">
        <ele>206.2</ele>
        <time>2022-05-20T13:02:18Z</time>
      </trkpt>
      <trkpt lat="48.62766" lon="6.36065">
        <ele>206.2</ele>
        <time>2022-05-20T13:02:19Z</time>
      </trkpt>
      <trkpt lat="48.62763" lon="6.3606">
        <ele>206.2</ele>
        <time>2022-05-20T13:02:20Z</time>
      </trkpt>
      <trkpt lat="48.62759" lon="6.36054">
        <ele>206</ele>
        <time>2022-05-20T13:02:21Z</time>
      </trkpt>
      <trkpt lat="48.62756" lon="6.36047">
        <ele>206</ele>
        <time>2022-05-20T13:02:22Z</time>
      </trkpt>
      <trkpt lat="48.62752" lon="6.3604">
        <ele>205.8</ele>
        <time>2022-05-20T13:02:23Z</time>
      </trkpt>
      <trkpt lat="48.62749" lon="6.36034">
        <ele>205.8</ele>
        <time>2022-05-20T13:02:24Z</time>
      </trkpt>
      <trkpt lat="48.62726" lon="6.35943">
        <ele>205.8</ele>
        <time>2022-05-20T13:02:36Z</time>
      </trkpt>
      <trkpt lat="48.62706" lon="6.35836">
        <ele>208.4</ele>
        <time>2022-05-20T13:02:58Z</time>
      </trkpt>
      <trkpt lat="48.62704" lon="6.3583">
        <ele>208.4</ele>
        <time>2022-05-20T13:03:08Z</time>
      </trkpt>
      <trkpt lat="48.62695" lon="6.35825">
        <ele>208.6</ele>
        <time>2022-05-20T13:03:20Z</time>
      </trkpt>
      <trkpt lat="48.62692" lon="6.35825">
        <ele>208.6</ele>
        <time>2022-05-20T13:03:21Z</time>
      </trkpt>
      <trkpt lat="48.62689" lon="6.35826">
        <ele>208.8</ele>
        <time>2022-05-20T13:03:22Z</time>
      </trkpt>
      <trkpt lat="48.62633" lon="6.35838">
        <ele>209.6</ele>
        <time>2022-05-20T13:03:39Z</time>
      </trkpt>
      <trkpt lat="48.62606" lon="6.35862">
        <ele>209</ele>
        <time>2022-05-20T13:03:50Z</time>
      </trkpt>
      <trkpt lat="48.62601" lon="6.35947">
        <ele>206.6</ele>
        <time>2022-05-20T13:04:00Z</time>
      </trkpt>
      <trkpt lat="48.62601" lon="6.3604">
        <ele>205</ele>
        <time>2022-05-20T13:04:09Z</time>
      </trkpt>
      <trkpt lat="48.62602" lon="6.36049">
        <ele>205</ele>
        <time>2022-05-20T13:04:10Z</time>
      </trkpt>
      <trkpt lat="48.62604" lon="6.36057">
        <ele>205.2</ele>
        <time>2022-05-20T13:04:11Z</time>
      </trkpt>
      <trkpt lat="48.62605" lon="6.36066">
        <ele>205.4</ele>
        <time>2022-05-20T13:04:12Z</time>
      </trkpt>
      <trkpt lat="48.62607" lon="6.36075">
        <ele>205.6</ele>
        <time>2022-05-20T13:04:13Z</time>
      </trkpt>
      <trkpt lat="48.62609" lon="6.36082">
        <ele>205.8</ele>
        <time>2022-05-20T13:04:14Z</time>
      </trkpt>
      <trkpt lat="48.6263" lon="6.3617">
        <ele>206.6</ele>
        <time>2022-05-20T13:04:26Z</time>
      </trkpt>
      <trkpt lat="48.62659" lon="6.36255">
        <ele>206</ele>
        <time>2022-05-20T13:04:37Z</time>
      </trkpt>
      <trkpt lat="48.62685" lon="6.36333">
        <ele>205.8</ele>
        <time>2022-05-20T13:04:47Z</time>
      </trkpt>
      <trkpt lat="48.62689" lon="6.36348">
        <ele>205.8</ele>
        <time>2022-05-20T13:04:49Z</time>
      </trkpt>
      <trkpt lat="48.6269" lon="6.36356">
        <ele>205.8</ele>
        <time>2022-05-20T13:04:50Z</time>
      </trkpt>
      <trkpt lat="48.62691" lon="6.36364">
        <ele>205.8</ele>
        <time>2022-05-20T13:04:51Z</time>
      </trkpt>
      <trkpt lat="48.6269" lon="6.36372">
        <ele>205.8</ele>
        <time>2022-05-20T13:04:52Z</time>
      </trkpt>
      <trkpt lat="48.62688" lon="6.36379">
        <ele>205.6</ele>
        <time>2022-05-20T13:04:53Z</time>
      </trkpt>
      <trkpt lat="48.62685" lon="6.36384">
        <ele>205.6</ele>
        <time>2022-05-20T13:04:54Z</time>
      </trkpt>
      <trkpt lat="48.62681" lon="6.36388">
        <ele>205.6</ele>
        <time>2022-05-20T13:04:55Z</time>
      </trkpt>
      <trkpt lat="48.62677" lon="6.36392">
        <ele>205.6</ele>
        <time>2022-05-20T13:04:56Z</time>
      </trkpt>
      <trkpt lat="48.62673" lon="6.36395">
        <ele>205.8</ele>
        <time>2022-05-20T13:04:57Z</time>
      </trkpt>
      <trkpt lat="48.62668" lon="6.36399">
        <ele>206</ele>
        <time>2022-05-20T13:04:58Z</time>
      </trkpt>
      <trkpt lat="48.62665" lon="6.36405">
        <ele>206</ele>
        <time>2022-05-20T13:04:59Z</time>
      </trkpt>
      <trkpt lat="48.62664" lon="6.36413">
        <ele>206</ele>
        <time>2022-05-20T13:05:00Z</time>
      </trkpt>
      <trkpt lat="48.62663" lon="6.3642">
        <ele>206</ele>
        <time>2022-05-20T13:05:01Z</time>
      </trkpt>
      <trkpt lat="48.62664" lon="6.36428">
        <ele>206</ele>
        <time>2022-05-20T13:05:02Z</time>
      </trkpt>
      <trkpt lat="48.62666" lon="6.36436">
        <ele>206</ele>
        <time>2022-05-20T13:05:03Z</time>
      </trkpt>
      <trkpt lat="48.62682" lon="6.3652">
        <ele>206.2</ele>
        <time>2022-05-20T13:05:13Z</time>
      </trkpt>
      <trkpt lat="48.62698" lon="6.36608">
        <ele>206.6</ele>
        <time>2022-05-20T13:05:23Z</time>
      </trkpt>
      <trkpt lat="48.62715" lon="6.36694">
        <ele>207.2</ele>
        <time>2022-05-20T13:05:33Z</time>
      </trkpt>
      <trkpt lat="48.6272" lon="6.3672">
        <ele>207.4</ele>
        <time>2022-05-20T13:05:36Z</time>
      </trkpt>
      <trkpt lat="48.62721" lon="6.36729">
        <ele>207.4</ele>
        <time>2022-05-20T13:05:37Z</time>
      </trkpt>
      <trkpt lat="48.62719" lon="6.36736">
        <ele>207.4</ele>
        <time>2022-05-20T13:05:38Z</time>
      </trkpt>
      <trkpt lat="48.62715" lon="6.36742">
        <ele>207.4</ele>
        <time>2022-05-20T13:05:39Z</time>
      </trkpt>
      <trkpt lat="48.62711" lon="6.36746">
        <ele>207.4</ele>
        <time>2022-05-20T13:05:40Z</time>
      </trkpt>
      <trkpt lat="48.62706" lon="6.36748">
        <ele>207.4</ele>
        <time>2022-05-20T13:05:41Z</time>
      </trkpt>
      <trkpt lat="48.62702" lon="6.36749">
        <ele>207.4</ele>
        <time>2022-05-20T13:05:42Z</time>
      </trkpt>
      <trkpt lat="48.62697" lon="6.36752">
        <ele>207.6</ele>
        <time>2022-05-20T13:05:43Z</time>
      </trkpt>
      <trkpt lat="48.62693" lon="6.36756">
        <ele>207.8</ele>
        <time>2022-05-20T13:05:44Z</time>
      </trkpt>
      <trkpt lat="48.6269" lon="6.36761">
        <ele>208</ele>
        <time>2022-05-20T13:05:45Z</time>
      </trkpt>
      <trkpt lat="48.6269" lon="6.36768">
        <ele>208</ele>
        <time>2022-05-20T13:05:46Z</time>
      </trkpt>
      <trkpt lat="48.62691" lon="6.36776">
        <ele>208</ele>
        <time>2022-05-20T13:05:47Z</time>
      </trkpt>
      <trkpt lat="48.62692" lon="6.36783">
        <ele>208</ele>
        <time>2022-05-20T13:05:48Z</time>
      </trkpt>
      <trkpt lat="48.62705" lon="6.36869">
        <ele>208.2</ele>
        <time>2022-05-20T13:05:59Z</time>
      </trkpt>
      <trkpt lat="48.62712" lon="6.36911">
        <ele>208.4</ele>
        <time>2022-05-20T13:06:05Z</time>
      </trkpt>
      <trkpt lat="48.62724" lon="6.36997">
        <ele>209</ele>
        <time>2022-05-20T13:06:19Z</time>
      </trkpt>
      <trkpt lat="48.62736" lon="6.3708">
        <ele>209.4</ele>
        <time>2022-05-20T13:06:31Z</time>
      </trkpt>
      <trkpt lat="48.62745" lon="6.37139">
        <ele>209.6</ele>
        <time>2022-05-20T13:06:40Z</time>
      </trkpt>
      <trkpt lat="48.62748" lon="6.37144">
        <ele>209.6</ele>
        <time>2022-05-20T13:06:41Z</time>
      </trkpt>
      <trkpt lat="48.62751" lon="6.37148">
        <ele>209.6</ele>
        <time>2022-05-20T13:06:42Z</time>
      </trkpt>
      <trkpt lat="48.62756" lon="6.3715">
        <ele>209.6</ele>
        <time>2022-05-20T13:06:43Z</time>
      </trkpt>
      <trkpt lat="48.6276" lon="6.37151">
        <ele>209.6</ele>
        <time>2022-05-20T13:06:44Z</time>
      </trkpt>
      <trkpt lat="48.62765" lon="6.37152">
        <ele>209.6</ele>
        <time>2022-05-20T13:06:45Z</time>
      </trkpt>
      <trkpt lat="48.6277" lon="6.37152">
        <ele>209.6</ele>
        <time>2022-05-20T13:06:46Z</time>
      </trkpt>
      <trkpt lat="48.62775" lon="6.37152">
        <ele>209.4</ele>
        <time>2022-05-20T13:06:47Z</time>
      </trkpt>
      <trkpt lat="48.62786" lon="6.37152">
        <ele>209.4</ele>
        <time>2022-05-20T13:06:49Z</time>
      </trkpt>
      <trkpt lat="48.6279" lon="6.37152">
        <ele>209.2</ele>
        <time>2022-05-20T13:06:50Z</time>
      </trkpt>
      <trkpt lat="48.62795" lon="6.37151">
        <ele>209</ele>
        <time>2022-05-20T13:06:51Z</time>
      </trkpt>
      <trkpt lat="48.628" lon="6.37152">
        <ele>208.8</ele>
        <time>2022-05-20T13:06:52Z</time>
      </trkpt>
      <trkpt lat="48.62804" lon="6.37154">
        <ele>208.8</ele>
        <time>2022-05-20T13:06:53Z</time>
      </trkpt>
      <trkpt lat="48.62808" lon="6.37158">
        <ele>208.8</ele>
        <time>2022-05-20T13:06:54Z</time>
      </trkpt>
      <trkpt lat="48.62811" lon="6.37164">
        <ele>208.6</ele>
        <time>2022-05-20T13:06:55Z</time>
      </trkpt>
      <trkpt lat="48.62812" lon="6.3717">
        <ele>208.6</ele>
        <time>2022-05-20T13:06:56Z</time>
      </trkpt>
      <trkpt lat="48.62813" lon="6.37176">
        <ele>208.4</ele>
        <time>2022-05-20T13:06:57Z</time>
      </trkpt>
      <trkpt lat="48.62833" lon="6.37265">
        <ele>209.2</ele>
        <time>2022-05-20T13:07:09Z</time>
      </trkpt>
      <trkpt lat="48.6286" lon="6.37343">
        <ele>209.8</ele>
        <time>2022-05-20T13:07:21Z</time>
      </trkpt>
      <trkpt lat="48.62879" lon="6.37394">
        <ele>210.2</ele>
        <time>2022-05-20T13:07:30Z</time>
      </trkpt>
      <trkpt lat="48.62882" lon="6.37399">
        <ele>210.2</ele>
        <time>2022-05-20T13:07:31Z</time>
      </trkpt>
      <trkpt lat="48.6289" lon="6.37422">
        <ele>210.2</ele>
        <time>2022-05-20T13:07:35Z</time>
      </trkpt>
      <trkpt lat="48.62893" lon="6.3746">
        <ele>210.8</ele>
        <time>2022-05-20T13:07:42Z</time>
      </trkpt>
      <trkpt lat="48.6289" lon="6.37463">
        <ele>210.8</ele>
        <time>2022-05-20T13:07:43Z</time>
      </trkpt>
      <trkpt lat="48.62887" lon="6.37463">
        <ele>211</ele>
        <time>2022-05-20T13:07:44Z</time>
      </trkpt>
      <trkpt lat="48.62884" lon="6.37464">
        <ele>211</ele>
        <time>2022-05-20T13:07:45Z</time>
      </trkpt>
      <trkpt lat="48.62881" lon="6.37465">
        <ele>211</ele>
        <time>2022-05-20T13:07:46Z</time>
      </trkpt>
      <trkpt lat="48.62877" lon="6.37466">
        <ele>211</ele>
        <time>2022-05-20T13:07:47Z</time>
      </trkpt>
      <trkpt lat="48.6286" lon="6.3747">
        <ele>211.2</ele>
        <time>2022-05-20T13:07:51Z</time>
      </trkpt>
      <trkpt lat="48.62855" lon="6.37472">
        <ele>211.4</ele>
        <time>2022-05-20T13:07:52Z</time>
      </trkpt>
      <trkpt lat="48.62815" lon="6.37489">
        <ele>211.8</ele>
        <time>2022-05-20T13:08:01Z</time>
      </trkpt>
      <trkpt lat="48.62757" lon="6.37493">
        <ele>213</ele>
        <time>2022-05-20T13:08:15Z</time>
      </trkpt>
      <trkpt lat="48.62699" lon="6.37514">
        <ele>213.8</ele>
        <time>2022-05-20T13:08:29Z</time>
      </trkpt>
      <trkpt lat="48.62647" lon="6.37548">
        <ele>215.2</ele>
        <time>2022-05-20T13:08:43Z</time>
      </trkpt>
      <trkpt lat="48.62623" lon="6.37536">
        <ele>216</ele>
        <time>2022-05-20T13:08:50Z</time>
      </trkpt>
      <trkpt lat="48.62619" lon="6.37535">
        <ele>216.2</ele>
        <time>2022-05-20T13:08:51Z</time>
      </trkpt>
      <trkpt lat="48.62614" lon="6.37536">
        <ele>216.2</ele>
        <time>2022-05-20T13:08:52Z</time>
      </trkpt>
      <trkpt lat="48.6261" lon="6.37538">
        <ele>216.2</ele>
        <time>2022-05-20T13:08:53Z</time>
      </trkpt>
      <trkpt lat="48.62606" lon="6.37541">
        <ele>216.2</ele>
        <time>2022-05-20T13:08:54Z</time>
      </trkpt>
      <trkpt lat="48.62602" lon="6.37544">
        <ele>216.2</ele>
        <time>2022-05-20T13:08:55Z</time>
      </trkpt>
      <trkpt lat="48.62583" lon="6.37558">
        <ele>216.8</ele>
        <time>2022-05-20T13:09:00Z</time>
      </trkpt>
      <trkpt lat="48.62531" lon="6.376">
        <ele>218.8</ele>
        <time>2022-05-20T13:09:16Z</time>
      </trkpt>
      <trkpt lat="48.62476" lon="6.37612">
        <ele>221.2</ele>
        <time>2022-05-20T13:09:33Z</time>
      </trkpt>
      <trkpt lat="48.62422" lon="6.37595">
        <ele>223.8</ele>
        <time>2022-05-20T13:09:52Z</time>
      </trkpt>
      <trkpt lat="48.62392" lon="6.37606">
        <ele>227</ele>
        <time>2022-05-20T13:10:06Z</time>
      </trkpt>
      <trkpt lat="48.62362" lon="6.37625">
        <ele>230.2</ele>
        <time>2022-05-20T13:10:21Z</time>
      </trkpt>
      <trkpt lat="48.62338" lon="6.37622">
        <ele>233.4</ele>
        <time>2022-05-20T13:10:36Z</time>
      </trkpt>
      <trkpt lat="48.6233" lon="6.37578">
        <ele>236.4</ele>
        <time>2022-05-20T13:10:51Z</time>
      </trkpt>
      <trkpt lat="48.62315" lon="6.37498">
        <ele>238.2</ele>
        <time>2022-05-20T13:11:12Z</time>
      </trkpt>
      <trkpt lat="48.623" lon="6.37412">
        <ele>238.4</ele>
        <time>2022-05-20T13:11:28Z</time>
      </trkpt>
      <trkpt lat="48.62262" lon="6.37356">
        <ele>239.8</ele>
        <time>2022-05-20T13:11:44Z</time>
      </trkpt>
      <trkpt lat="48.62245" lon="6.37356">
        <ele>241.8</ele>
        <time>2022-05-20T13:11:49Z</time>
      </trkpt>
      <trkpt lat="48.6222" lon="6.37352">
        <ele>245</ele>
        <time>2022-05-20T13:11:59Z</time>
      </trkpt>
      <trkpt lat="48.62196" lon="6.37346">
        <ele>248.2</ele>
        <time>2022-05-20T13:12:09Z</time>
      </trkpt>
      <trkpt lat="48.62165" lon="6.37339">
        <ele>251.2</ele>
        <time>2022-05-20T13:12:22Z</time>
      </trkpt>
      <trkpt lat="48.6214" lon="6.37324">
        <ele>254.4</ele>
        <time>2022-05-20T13:12:33Z</time>
      </trkpt>
      <trkpt lat="48.62122" lon="6.37309">
        <ele>257.6</ele>
        <time>2022-05-20T13:12:41Z</time>
      </trkpt>
      <trkpt lat="48.62087" lon="6.37302">
        <ele>260.8</ele>
        <time>2022-05-20T13:13:01Z</time>
      </trkpt>
      <trkpt lat="48.62038" lon="6.37308">
        <ele>263.8</ele>
        <time>2022-05-20T13:13:25Z</time>
      </trkpt>
      <trkpt lat="48.61982" lon="6.37318">
        <ele>265</ele>
        <time>2022-05-20T13:13:46Z</time>
      </trkpt>
      <trkpt lat="48.61926" lon="6.37339">
        <ele>267.4</ele>
        <time>2022-05-20T13:14:06Z</time>
      </trkpt>
      <trkpt lat="48.61872" lon="6.37364">
        <ele>269</ele>
        <time>2022-05-20T13:14:23Z</time>
      </trkpt>
      <trkpt lat="48.61819" lon="6.37399">
        <ele>271.4</ele>
        <time>2022-05-20T13:14:41Z</time>
      </trkpt>
      <trkpt lat="48.61794" lon="6.37428">
        <ele>272.4</ele>
        <time>2022-05-20T13:15:00Z</time>
      </trkpt>
      <trkpt lat="48.61795" lon="6.37432">
        <ele>275.8</ele>
        <time>2022-05-20T13:17:08Z</time>
      </trkpt>
      <trkpt lat="48.61794" lon="6.37435">
        <ele>275.8</ele>
        <time>2022-05-20T13:17:09Z</time>
      </trkpt>
      <trkpt lat="48.61793" lon="6.37439">
        <ele>275.8</ele>
        <time>2022-05-20T13:17:10Z</time>
      </trkpt>
      <trkpt lat="48.6181" lon="6.37519">
        <ele>278.8</ele>
        <time>2022-05-20T13:17:28Z</time>
      </trkpt>
      <trkpt lat="48.61843" lon="6.37593">
        <ele>281.6</ele>
        <time>2022-05-20T13:17:49Z</time>
      </trkpt>
      <trkpt lat="48.61874" lon="6.37666">
        <ele>283.4</ele>
        <time>2022-05-20T13:18:16Z</time>
      </trkpt>
      <trkpt lat="48.6191" lon="6.37736">
        <ele>283.4</ele>
        <time>2022-05-20T13:18:34Z</time>
      </trkpt>
      <trkpt lat="48.61956" lon="6.37794">
        <ele>282</ele>
        <time>2022-05-20T13:18:47Z</time>
      </trkpt>
      <trkpt lat="48.61968" lon="6.37808">
        <ele>281.6</ele>
        <time>2022-05-20T13:18:50Z</time>
      </trkpt>
      <trkpt lat="48.61981" lon="6.3783">
        <ele>281.4</ele>
        <time>2022-05-20T13:18:54Z</time>
      </trkpt>
      <trkpt lat="48.61984" lon="6.37836">
        <ele>281.4</ele>
        <time>2022-05-20T13:18:55Z</time>
      </trkpt>
      <trkpt lat="48.61987" lon="6.37842">
        <ele>281.4</ele>
        <time>2022-05-20T13:18:56Z</time>
      </trkpt>
      <trkpt lat="48.61993" lon="6.37861">
        <ele>281.4</ele>
        <time>2022-05-20T13:18:59Z</time>
      </trkpt>
      <trkpt lat="48.61994" lon="6.37867">
        <ele>281.4</ele>
        <time>2022-05-20T13:19:00Z</time>
      </trkpt>
      <trkpt lat="48.61994" lon="6.37874">
        <ele>281.4</ele>
        <time>2022-05-20T13:19:01Z</time>
      </trkpt>
      <trkpt lat="48.61995" lon="6.37881">
        <ele>281.4</ele>
        <time>2022-05-20T13:19:02Z</time>
      </trkpt>
      <trkpt lat="48.61995" lon="6.37888">
        <ele>281.6</ele>
        <time>2022-05-20T13:19:03Z</time>
      </trkpt>
      <trkpt lat="48.61995" lon="6.37895">
        <ele>281.6</ele>
        <time>2022-05-20T13:19:04Z</time>
      </trkpt>
      <trkpt lat="48.61995" lon="6.37901">
        <ele>281.6</ele>
        <time>2022-05-20T13:19:05Z</time>
      </trkpt>
      <trkpt lat="48.61998" lon="6.3792">
        <ele>281.6</ele>
        <time>2022-05-20T13:19:08Z</time>
      </trkpt>
      <trkpt lat="48.62001" lon="6.37932">
        <ele>281.4</ele>
        <time>2022-05-20T13:19:10Z</time>
      </trkpt>
      <trkpt lat="48.62003" lon="6.37938">
        <ele>281.4</ele>
        <time>2022-05-20T13:19:11Z</time>
      </trkpt>
      <trkpt lat="48.62005" lon="6.37945">
        <ele>281.4</ele>
        <time>2022-05-20T13:19:12Z</time>
      </trkpt>
      <trkpt lat="48.62015" lon="6.37976">
        <ele>281.4</ele>
        <time>2022-05-20T13:19:17Z</time>
      </trkpt>
      <trkpt lat="48.62017" lon="6.37983">
        <ele>281.4</ele>
        <time>2022-05-20T13:19:18Z</time>
      </trkpt>
      <trkpt lat="48.62031" lon="6.3803">
        <ele>281</ele>
        <time>2022-05-20T13:19:25Z</time>
      </trkpt>
      <trkpt lat="48.62048" lon="6.38077">
        <ele>280.4</ele>
        <time>2022-05-20T13:19:33Z</time>
      </trkpt>
      <trkpt lat="48.62063" lon="6.38109">
        <ele>280</ele>
        <time>2022-05-20T13:19:38Z</time>
      </trkpt>
      <trkpt lat="48.62098" lon="6.38189">
        <ele>281.2</ele>
        <time>2022-05-20T13:19:50Z</time>
      </trkpt>
      <trkpt lat="48.62127" lon="6.38267">
        <ele>284</ele>
        <time>2022-05-20T13:20:03Z</time>
      </trkpt>
      <trkpt lat="48.62157" lon="6.3834">
        <ele>284.4</ele>
        <time>2022-05-20T13:20:17Z</time>
      </trkpt>
      <trkpt lat="48.62182" lon="6.38415">
        <ele>285.6</ele>
        <time>2022-05-20T13:20:33Z</time>
      </trkpt>
      <trkpt lat="48.62185" lon="6.3848">
        <ele>288.8</ele>
        <time>2022-05-20T13:20:46Z</time>
      </trkpt>
      <trkpt lat="48.62155" lon="6.38555">
        <ele>291</ele>
        <time>2022-05-20T13:21:04Z</time>
      </trkpt>
      <trkpt lat="48.62115" lon="6.38621">
        <ele>292</ele>
        <time>2022-05-20T13:21:21Z</time>
      </trkpt>
      <trkpt lat="48.6207" lon="6.38674">
        <ele>293</ele>
        <time>2022-05-20T13:21:35Z</time>
      </trkpt>
      <trkpt lat="48.62022" lon="6.38729">
        <ele>293.8</ele>
        <time>2022-05-20T13:21:50Z</time>
      </trkpt>
      <trkpt lat="48.61982" lon="6.38781">
        <ele>294.6</ele>
        <time>2022-05-20T13:22:04Z</time>
      </trkpt>
      <trkpt lat="48.61982" lon="6.38786">
        <ele>294.6</ele>
        <time>2022-05-20T13:22:05Z</time>
      </trkpt>
      <trkpt lat="48.61983" lon="6.3879">
        <ele>294.6</ele>
        <time>2022-05-20T13:22:06Z</time>
      </trkpt>
      <trkpt lat="48.61985" lon="6.38795">
        <ele>294.6</ele>
        <time>2022-05-20T13:22:07Z</time>
      </trkpt>
      <trkpt lat="48.61987" lon="6.38799">
        <ele>294.6</ele>
        <time>2022-05-20T13:22:08Z</time>
      </trkpt>
      <trkpt lat="48.62012" lon="6.38864">
        <ele>293.2</ele>
        <time>2022-05-20T13:22:19Z</time>
      </trkpt>
      <trkpt lat="48.62013" lon="6.38871">
        <ele>293.2</ele>
        <time>2022-05-20T13:22:20Z</time>
      </trkpt>
      <trkpt lat="48.62013" lon="6.38878">
        <ele>293</ele>
        <time>2022-05-20T13:22:21Z</time>
      </trkpt>
      <trkpt lat="48.62013" lon="6.38885">
        <ele>293</ele>
        <time>2022-05-20T13:22:22Z</time>
      </trkpt>
      <trkpt lat="48.62012" lon="6.38892">
        <ele>292.8</ele>
        <time>2022-05-20T13:22:23Z</time>
      </trkpt>
      <trkpt lat="48.62012" lon="6.38914">
        <ele>292.8</ele>
        <time>2022-05-20T13:22:26Z</time>
      </trkpt>
      <trkpt lat="48.62019" lon="6.39002">
        <ele>292.2</ele>
        <time>2022-05-20T13:22:39Z</time>
      </trkpt>
      <trkpt lat="48.6202" lon="6.3902">
        <ele>292.4</ele>
        <time>2022-05-20T13:22:42Z</time>
      </trkpt>
      <trkpt lat="48.62016" lon="6.39035">
        <ele>292.8</ele>
        <time>2022-05-20T13:22:45Z</time>
      </trkpt>
      <trkpt lat="48.61964" lon="6.39084">
        <ele>294.6</ele>
        <time>2022-05-20T13:23:02Z</time>
      </trkpt>
      <trkpt lat="48.61964" lon="6.39089">
        <ele>294.8</ele>
        <time>2022-05-20T13:23:03Z</time>
      </trkpt>
      <trkpt lat="48.61965" lon="6.39094">
        <ele>295</ele>
        <time>2022-05-20T13:23:04Z</time>
      </trkpt>
      <trkpt lat="48.61967" lon="6.39099">
        <ele>295</ele>
        <time>2022-05-20T13:23:05Z</time>
      </trkpt>
      <trkpt lat="48.6197" lon="6.39104">
        <ele>294.8</ele>
        <time>2022-05-20T13:23:06Z</time>
      </trkpt>
      <trkpt lat="48.61972" lon="6.39109">
        <ele>294.6</ele>
        <time>2022-05-20T13:23:07Z</time>
      </trkpt>
      <trkpt lat="48.61991" lon="6.3917">
        <ele>293.6</ele>
        <time>2022-05-20T13:23:18Z</time>
      </trkpt>
      <trkpt lat="48.6199" lon="6.39174">
        <ele>293.8</ele>
        <time>2022-05-20T13:23:19Z</time>
      </trkpt>
      <trkpt lat="48.61989" lon="6.39178">
        <ele>293.8</ele>
        <time>2022-05-20T13:23:20Z</time>
      </trkpt>
      <trkpt lat="48.61986" lon="6.39182">
        <ele>293.8</ele>
        <time>2022-05-20T13:23:21Z</time>
      </trkpt>
      <trkpt lat="48.61983" lon="6.39185">
        <ele>293.8</ele>
        <time>2022-05-20T13:23:22Z</time>
      </trkpt>
      <trkpt lat="48.6198" lon="6.39188">
        <ele>293.8</ele>
        <time>2022-05-20T13:23:23Z</time>
      </trkpt>
      <trkpt lat="48.61931" lon="6.39245">
        <ele>294</ele>
        <time>2022-05-20T13:23:39Z</time>
      </trkpt>
      <trkpt lat="48.61885" lon="6.39301">
        <ele>294</ele>
        <time>2022-05-20T13:23:55Z</time>
      </trkpt>
      <trkpt lat="48.61876" lon="6.39317">
        <ele>294.6</ele>
        <time>2022-05-20T13:24:00Z</time>
      </trkpt>
      <trkpt lat="48.61876" lon="6.3932">
        <ele>294.6</ele>
        <time>2022-05-20T13:24:01Z</time>
      </trkpt>
      <trkpt lat="48.61877" lon="6.39322">
        <ele>294.8</ele>
        <time>2022-05-20T13:24:02Z</time>
      </trkpt>
      <trkpt lat="48.61878" lon="6.39324">
        <ele>294.8</ele>
        <time>2022-05-20T13:24:03Z</time>
      </trkpt>
      <trkpt lat="48.61879" lon="6.39326">
        <ele>294.8</ele>
        <time>2022-05-20T13:24:04Z</time>
      </trkpt>
      <trkpt lat="48.61881" lon="6.39327">
        <ele>295</ele>
        <time>2022-05-20T13:24:05Z</time>
      </trkpt>
      <trkpt lat="48.61904" lon="6.3937">
        <ele>294.6</ele>
        <time>2022-05-20T13:24:21Z</time>
      </trkpt>
      <trkpt lat="48.61904" lon="6.39374">
        <ele>294.6</ele>
        <time>2022-05-20T13:24:22Z</time>
      </trkpt>
      <trkpt lat="48.61902" lon="6.39377">
        <ele>294.6</ele>
        <time>2022-05-20T13:24:23Z</time>
      </trkpt>
      <trkpt lat="48.61873" lon="6.39414">
        <ele>291.2</ele>
        <time>2022-05-20T13:24:34Z</time>
      </trkpt>
      <trkpt lat="48.61864" lon="6.39418">
        <ele>288.8</ele>
        <time>2022-05-20T13:24:37Z</time>
      </trkpt>
      <trkpt lat="48.61861" lon="6.39417">
        <ele>288.4</ele>
        <time>2022-05-20T13:24:38Z</time>
      </trkpt>
      <trkpt lat="48.61858" lon="6.39416">
        <ele>287.8</ele>
        <time>2022-05-20T13:24:39Z</time>
      </trkpt>
      <trkpt lat="48.61836" lon="6.39405">
        <ele>284.8</ele>
        <time>2022-05-20T13:24:46Z</time>
      </trkpt>
      <trkpt lat="48.61823" lon="6.39393">
        <ele>281.8</ele>
        <time>2022-05-20T13:24:50Z</time>
      </trkpt>
      <trkpt lat="48.61809" lon="6.39386">
        <ele>278.6</ele>
        <time>2022-05-20T13:24:54Z</time>
      </trkpt>
      <trkpt lat="48.61792" lon="6.39379">
        <ele>274.8</ele>
        <time>2022-05-20T13:24:58Z</time>
      </trkpt>
      <trkpt lat="48.61785" lon="6.39382">
        <ele>273.2</ele>
        <time>2022-05-20T13:25:01Z</time>
      </trkpt>
      <trkpt lat="48.61783" lon="6.39385">
        <ele>272.6</ele>
        <time>2022-05-20T13:25:02Z</time>
      </trkpt>
      <trkpt lat="48.61781" lon="6.39389">
        <ele>272.2</ele>
        <time>2022-05-20T13:25:03Z</time>
      </trkpt>
      <trkpt lat="48.61779" lon="6.39393">
        <ele>271.8</ele>
        <time>2022-05-20T13:25:04Z</time>
      </trkpt>
      <trkpt lat="48.61776" lon="6.39398">
        <ele>271.6</ele>
        <time>2022-05-20T13:25:05Z</time>
      </trkpt>
      <trkpt lat="48.61774" lon="6.39403">
        <ele>271.4</ele>
        <time>2022-05-20T13:25:06Z</time>
      </trkpt>
      <trkpt lat="48.61772" lon="6.39407">
        <ele>271</ele>
        <time>2022-05-20T13:25:07Z</time>
      </trkpt>
      <trkpt lat="48.61766" lon="6.3942">
        <ele>270.2</ele>
        <time>2022-05-20T13:25:10Z</time>
      </trkpt>
      <trkpt lat="48.61766" lon="6.39424">
        <ele>270</ele>
        <time>2022-05-20T13:25:11Z</time>
      </trkpt>
      <trkpt lat="48.61768" lon="6.39427">
        <ele>270</ele>
        <time>2022-05-20T13:25:12Z</time>
      </trkpt>
      <trkpt lat="48.61769" lon="6.39431">
        <ele>270</ele>
        <time>2022-05-20T13:25:13Z</time>
      </trkpt>
      <trkpt lat="48.61771" lon="6.39433">
        <ele>270</ele>
        <time>2022-05-20T13:25:14Z</time>
      </trkpt>
      <trkpt lat="48.61773" lon="6.39435">
        <ele>270</ele>
        <time>2022-05-20T13:25:15Z</time>
      </trkpt>
      <trkpt lat="48.61814" lon="6.39494">
        <ele>269.2</ele>
        <time>2022-05-20T13:25:31Z</time>
      </trkpt>
      <trkpt lat="48.61828" lon="6.39516">
        <ele>268.8</ele>
        <time>2022-05-20T13:25:36Z</time>
      </trkpt>
      <trkpt lat="48.61857" lon="6.39553">
        <ele>267.8</ele>
        <time>2022-05-20T13:25:45Z</time>
      </trkpt>
      <trkpt lat="48.61891" lon="6.39584">
        <ele>266.8</ele>
        <time>2022-05-20T13:25:55Z</time>
      </trkpt>
      <trkpt lat="48.61895" lon="6.39588">
        <ele>266.4</ele>
        <time>2022-05-20T13:25:56Z</time>
      </trkpt>
      <trkpt lat="48.61921" lon="6.39619">
        <ele>264.4</ele>
        <time>2022-05-20T13:26:04Z</time>
      </trkpt>
      <trkpt lat="48.61921" lon="6.39623">
        <ele>264</ele>
        <time>2022-05-20T13:26:05Z</time>
      </trkpt>
      <trkpt lat="48.6192" lon="6.39629">
        <ele>263.8</ele>
        <time>2022-05-20T13:26:06Z</time>
      </trkpt>
      <trkpt lat="48.61917" lon="6.39635">
        <ele>263.2</ele>
        <time>2022-05-20T13:26:07Z</time>
      </trkpt>
      <trkpt lat="48.61913" lon="6.39641">
        <ele>262.6</ele>
        <time>2022-05-20T13:26:08Z</time>
      </trkpt>
      <trkpt lat="48.61897" lon="6.39672">
        <ele>261</ele>
        <time>2022-05-20T13:26:13Z</time>
      </trkpt>
      <trkpt lat="48.61892" lon="6.39678">
        <ele>260.8</ele>
        <time>2022-05-20T13:26:14Z</time>
      </trkpt>
      <trkpt lat="48.61887" lon="6.39683">
        <ele>260.6</ele>
        <time>2022-05-20T13:26:15Z</time>
      </trkpt>
      <trkpt lat="48.61883" lon="6.39687">
        <ele>260.2</ele>
        <time>2022-05-20T13:26:16Z</time>
      </trkpt>
      <trkpt lat="48.6188" lon="6.3969">
        <ele>259.6</ele>
        <time>2022-05-20T13:26:17Z</time>
      </trkpt>
      <trkpt lat="48.61877" lon="6.39693">
        <ele>259.2</ele>
        <time>2022-05-20T13:26:18Z</time>
      </trkpt>
      <trkpt lat="48.61875" lon="6.39697">
        <ele>258.6</ele>
        <time>2022-05-20T13:26:19Z</time>
      </trkpt>
      <trkpt lat="48.61875" lon="6.39702">
        <ele>258.2</ele>
        <time>2022-05-20T13:26:20Z</time>
      </trkpt>
      <trkpt lat="48.61875" lon="6.39708">
        <ele>257.8</ele>
        <time>2022-05-20T13:26:21Z</time>
      </trkpt>
      <trkpt lat="48.61877" lon="6.39714">
        <ele>257.6</ele>
        <time>2022-05-20T13:26:22Z</time>
      </trkpt>
      <trkpt lat="48.61883" lon="6.39731">
        <ele>257</ele>
        <time>2022-05-20T13:26:25Z</time>
      </trkpt>
      <trkpt lat="48.61885" lon="6.39737">
        <ele>257</ele>
        <time>2022-05-20T13:26:26Z</time>
      </trkpt>
      <trkpt lat="48.61889" lon="6.39749">
        <ele>256.6</ele>
        <time>2022-05-20T13:26:28Z</time>
      </trkpt>
      <trkpt lat="48.61901" lon="6.39776">
        <ele>255.6</ele>
        <time>2022-05-20T13:26:34Z</time>
      </trkpt>
      <trkpt lat="48.61905" lon="6.39775">
        <ele>255.6</ele>
        <time>2022-05-20T13:26:35Z</time>
      </trkpt>
      <trkpt lat="48.61911" lon="6.39768">
        <ele>256</ele>
        <time>2022-05-20T13:26:39Z</time>
      </trkpt>
      <trkpt lat="48.61913" lon="6.39768">
        <ele>256.4</ele>
        <time>2022-05-20T13:26:46Z</time>
      </trkpt>
    </trkseg>
  </trk>
</gpx>